Home > Products > Valid Products > OSO

000
SXUS55 KMSO 230843
OSOMSO
MONTANA AWOS SUMMARY
NATIONAL WEATHER SERVICE MISSOULA MT
243 AM MDT THU OCT 23 2014

Montana AWOS Reports

LAUREL      |K6S8 230835Z AUTO 00000KT 40SM 09/M07 A2993 RMK AO1 T00891066
ROUNDUP     |KRPX 230835Z AUTO 00000KT 40SM 05/M04 A2983 RMK AO1 T00501043






000
SXUS55 KMSO 230823
OSOMSO
MONTANA AWOS SUMMARY
NATIONAL WEATHER SERVICE MISSOULA MT
223 AM MDT THU OCT 23 2014

Montana AWOS Reports

LAUREL      |K6S8 230815Z AUTO 24005KT 40SM 09/M06 A2993 RMK AO1 T00941060
ROUNDUP     |KRPX 230815Z AUTO 18004KT 40SM 05/M04 A2983 RMK AO1 T00501043






000
SXUS55 KMSO 230803
OSOMSO
MONTANA AWOS SUMMARY
NATIONAL WEATHER SERVICE MISSOULA MT
203 AM MDT THU OCT 23 2014

Montana AWOS Reports

LAUREL      |K6S8 230755Z AUTO 23007KT 40SM 09/M06 A2993 RMK AO1 T00941060
ROUNDUP     |KRPX 230755Z AUTO 00000KT 40SM 07/M04 A2983 RMK AO1 T00671038
PLAINS      |KS34 230755Z AUTO 00000KT 15SM 07/04 A2987 RMK AO1 T00720044
SCOBEY      |K9S2 230755Z AUTO 00000KT 40SM 03/M03 A2982 RMK AO1 T00281032
MALTA       |KM75 230755Z AUTO 00000KT 40SM 05/M01 A2978 RMK AO1 T00501005






000
SXUS55 KMSO 230743
OSOMSO
MONTANA AWOS SUMMARY
NATIONAL WEATHER SERVICE MISSOULA MT
143 AM MDT THU OCT 23 2014

Montana AWOS Reports

LAUREL      |K6S8 230735Z AUTO 23007KT 40SM 08/M07 A2993 RMK AO1 T00831071
ROUNDUP     |KRPX 230735Z AUTO 20006KT 40SM 07/M04 A2984 RMK AO1 T00721038






000
SXUS55 KMSO 230723
OSOMSO
MONTANA AWOS SUMMARY
NATIONAL WEATHER SERVICE MISSOULA MT
123 AM MDT THU OCT 23 2014

Montana AWOS Reports

LAUREL      |K6S8 230715Z AUTO 00000KT 40SM 09/M07 A2994 RMK AO1 T00891066
ROUNDUP     |KRPX 230715Z AUTO 19005KT 40SM 07/M04 A2984 RMK AO1 T00671038






000
SXUS55 KMSO 230703
OSOMSO
MONTANA AWOS SUMMARY
NATIONAL WEATHER SERVICE MISSOULA MT
103 AM MDT THU OCT 23 2014

Montana AWOS Reports

LAUREL      |K6S8 230655Z AUTO 22004KT 40SM 09/M06 A2994 RMK AO1 T00941060
ROUNDUP     |KRPX 230655Z AUTO 19005KT 40SM 07/M04 A2984 RMK AO1 T00671038
SCOBEY      |K9S2 230655Z AUTO 00000KT 40SM 03/M03 A2983 RMK AO1 T00331027
PLAINS      |KS34 230655Z AUTO 00000KT 25SM 07/04 A2986 RMK AO1 T00720039
MALTA       |KM75 230655Z AUTO 00000KT 40SM 04/00 A2979 RMK AO1 T00440000






000
SXUS55 KMSO 230653
OSOMSO
MONTANA AWOS SUMMARY
NATIONAL WEATHER SERVICE MISSOULA MT
1253 AM MDT THU OCT 23 2014

Montana AWOS Reports

LAUREL      |K6S8 230635Z AUTO 00000KT 40SM 10/M06 A2994 RMK AO1 T01001060
ROUNDUP     |KRPX 230635Z AUTO 19006KT 40SM 07/M04 A2985 RMK AO1 T00671038






000
SXUS55 KMSO 230623
OSOMSO
MONTANA AWOS SUMMARY
NATIONAL WEATHER SERVICE MISSOULA MT
1223 AM MDT THU OCT 23 2014

Montana AWOS Reports

LAUREL      |K6S8 230615Z AUTO 21004KT 40SM 10/M07 A2995 RMK AO1 T01001066
ROUNDUP     |KRPX 230615Z AUTO 19004KT 40SM 08/M04 A2986 RMK AO1 T00781038






000
SXUS55 KMSO 230603
OSOMSO
MONTANA AWOS SUMMARY
NATIONAL WEATHER SERVICE MISSOULA MT
1203 AM MDT THU OCT 23 2014

Montana AWOS Reports

LAUREL      |K6S8 230555Z AUTO 22007KT 40SM 09/M06 A2996 RMK AO1 T00941060
ROUNDUP     |KRPX 230555Z AUTO 21009G15KT 40SM 09/M03 A2986 RMK AO1 T00891032
SCOBEY      |K9S2 230555Z AUTO 00000KT 40SM 04/M03 A2983 RMK AO1 T00391027
MALTA       |KM75 230555Z AUTO 00000KT 40SM 02/M01 A2981 RMK AO1 T00221010
PLAINS      |KS34 230555Z AUTO 00000KT 25SM 07/03 A2985 RMK AO1 T00720033






000
SXUS55 KMSO 230544
OSOMSO
MONTANA AWOS SUMMARY
NATIONAL WEATHER SERVICE MISSOULA MT
1143 PM MDT WED OCT 22 2014

Montana AWOS Reports

LAUREL      |K6S8 230535Z AUTO 22004KT 40SM 07/M06 A2996 RMK AO1 T00721060
ROUNDUP     |KRPX 230535Z AUTO 19007KT 40SM 09/M03 A2986 RMK AO1 T00941032






000
SXUS55 KMSO 230523
OSOMSO
MONTANA AWOS SUMMARY
NATIONAL WEATHER SERVICE MISSOULA MT
1123 PM MDT WED OCT 22 2014

Montana AWOS Reports

LAUREL      |K6S8 230515Z AUTO 00000KT 40SM 07/M06 A2996 RMK AO1 T00671060
ROUNDUP     |KRPX 230515Z AUTO 20004KT 40SM 09/M03 A2986 RMK AO1 T00891032






000
SXUS55 KMSO 230503
OSOMSO
MONTANA AWOS SUMMARY
NATIONAL WEATHER SERVICE MISSOULA MT
1103 PM MDT WED OCT 22 2014

Montana AWOS Reports

LAUREL      |K6S8 230455Z AUTO 00000KT 40SM 09/M06 A2996 RMK AO1 T00891060
ROUNDUP     |KRPX 230455Z AUTO 00000KT 40SM 09/M03 A2987 RMK AO1 T00891032
MALTA       |KM75 230455Z AUTO 00000KT 40SM 02/M01 A2982 RMK AO1 T00221010






000
SXUS55 KMSO 230503
OSOMSO
MONTANA AWOS SUMMARY
NATIONAL WEATHER SERVICE MISSOULA MT
1103 PM MDT WED OCT 22 2014

Montana AWOS Reports

LAUREL      |K6S8 230455Z AUTO 00000KT 40SM 09/M06 A2996 RMK AO1 T00891060
ROUNDUP     |KRPX 230455Z AUTO 00000KT 40SM 09/M03 A2987 RMK AO1 T00891032
MALTA       |KM75 230455Z AUTO 00000KT 40SM 02/M01 A2982 RMK AO1 T00221010






000
SXUS55 KMSO 230444
OSOMSO
MONTANA AWOS SUMMARY
NATIONAL WEATHER SERVICE MISSOULA MT
1043 PM MDT WED OCT 22 2014

Montana AWOS Reports

LAUREL      |K6S8 230435Z AUTO 00000KT 40SM 11/M07 A2997 RMK AO1 T01061071
ROUNDUP     |KRPX 230435Z AUTO 00000KT 40SM 08/M03 A2987 RMK AO1 T00831027






000
SXUS55 KMSO 230444
OSOMSO
MONTANA AWOS SUMMARY
NATIONAL WEATHER SERVICE MISSOULA MT
1043 PM MDT WED OCT 22 2014

Montana AWOS Reports

LAUREL      |K6S8 230435Z AUTO 00000KT 40SM 11/M07 A2997 RMK AO1 T01061071
ROUNDUP     |KRPX 230435Z AUTO 00000KT 40SM 08/M03 A2987 RMK AO1 T00831027






000
SXUS55 KMSO 230423
OSOMSO
MONTANA AWOS SUMMARY
NATIONAL WEATHER SERVICE MISSOULA MT
1023 PM MDT WED OCT 22 2014

Montana AWOS Reports

LAUREL      |K6S8 230415Z AUTO 23005KT 40SM 11/M07 A2997 RMK AO1 T01111066
ROUNDUP     |KRPX 230415Z AUTO 22007KT 40SM 09/M03 A2987 RMK AO1 T00891027






000
SXUS55 KMSO 230404
OSOMSO
MONTANA AWOS SUMMARY
NATIONAL WEATHER SERVICE MISSOULA MT
1003 PM MDT WED OCT 22 2014

Montana AWOS Reports

LAUREL      |K6S8 230355Z AUTO 25004KT 40SM 12/M07 A2997 RMK AO1 T01171066
ROUNDUP     |KRPX 230355Z AUTO 20005KT 40SM 08/M03 A2987 RMK AO1 T00781032
SCOBEY      |K9S2 230355Z AUTO 00000KT 40SM 05/M02 A2985 RMK AO1 T00501021
MALTA       |KM75 230355Z AUTO 00000KT 40SM 03/M01 A2983 RMK AO1 T00331005
PLAINS      |KS34 230355Z AUTO 00000KT 25SM 08/03 A2986 RMK AO1 T00780033






000
SXUS55 KMSO 230404
OSOMSO
MONTANA AWOS SUMMARY
NATIONAL WEATHER SERVICE MISSOULA MT
1003 PM MDT WED OCT 22 2014

Montana AWOS Reports

LAUREL      |K6S8 230355Z AUTO 25004KT 40SM 12/M07 A2997 RMK AO1 T01171066
ROUNDUP     |KRPX 230355Z AUTO 20005KT 40SM 08/M03 A2987 RMK AO1 T00781032
SCOBEY      |K9S2 230355Z AUTO 00000KT 40SM 05/M02 A2985 RMK AO1 T00501021
MALTA       |KM75 230355Z AUTO 00000KT 40SM 03/M01 A2983 RMK AO1 T00331005
PLAINS      |KS34 230355Z AUTO 00000KT 25SM 08/03 A2986 RMK AO1 T00780033






000
SXUS55 KMSO 230343
OSOMSO
MONTANA AWOS SUMMARY
NATIONAL WEATHER SERVICE MISSOULA MT
943 PM MDT WED OCT 22 2014

Montana AWOS Reports

LAUREL      |K6S8 230335Z AUTO 24006KT 40SM 12/M06 A2997 RMK AO1 T01171060
ROUNDUP     |KRPX 230335Z AUTO 21004KT 40SM 08/M03 A2988 RMK AO1 T00831032






000
SXUS55 KMSO 230343
OSOMSO
MONTANA AWOS SUMMARY
NATIONAL WEATHER SERVICE MISSOULA MT
943 PM MDT WED OCT 22 2014

Montana AWOS Reports

LAUREL      |K6S8 230335Z AUTO 24006KT 40SM 12/M06 A2997 RMK AO1 T01171060
ROUNDUP     |KRPX 230335Z AUTO 21004KT 40SM 08/M03 A2988 RMK AO1 T00831032






000
SXUS55 KMSO 230323
OSOMSO
MONTANA AWOS SUMMARY
NATIONAL WEATHER SERVICE MISSOULA MT
923 PM MDT WED OCT 22 2014

Montana AWOS Reports

LAUREL      |K6S8 230315Z AUTO 25005KT 40SM 12/M06 A2997 RMK AO1 T01171060
ROUNDUP     |KRPX 230315Z AUTO 00000KT 40SM 09/M03 A2988 RMK AO1 T00941027






000
SXUS55 KMSO 230313
OSOMSO
MONTANA AWOS SUMMARY
NATIONAL WEATHER SERVICE MISSOULA MT
912 PM MDT WED OCT 22 2014

Montana AWOS Reports

LAUREL      |K6S8 230255Z AUTO 24004KT 40SM 11/M06 A2996 RMK AO1 T01111055
ROUNDUP     |KRPX 230255Z AUTO 00000KT 40SM 10/M03 A2988 RMK AO1 T01001027
MALTA       |KM75 230255Z AUTO 00000KT 40SM 04/M01 A2984 RMK AO1 T00441005
SCOBEY      |K9S2 230255Z AUTO 25005KT 40SM 07/M02 A2985 RMK AO1 T00671016






000
SXUS55 KMSO 230303
OSOMSO
MONTANA AWOS SUMMARY
NATIONAL WEATHER SERVICE MISSOULA MT
903 PM MDT WED OCT 22 2014

Montana AWOS Reports

PLAINS      |KS34 230255Z AUTO 00000KT 25SM 08/03 A2986 RMK AO1 T00830033






000
SXUS55 KMSO 230243
OSOMSO
MONTANA AWOS SUMMARY
NATIONAL WEATHER SERVICE MISSOULA MT
843 PM MDT WED OCT 22 2014

Montana AWOS Reports

LAUREL      |K6S8 230235Z AUTO 23006KT 40SM 10/M06 A2996 RMK AO1 T01001055
ROUNDUP     |KRPX 230235Z AUTO 00000KT 40SM 09/M04 A2987 RMK AO1 T00941038






000
SXUS55 KMSO 230223
OSOMSO
MONTANA AWOS SUMMARY
NATIONAL WEATHER SERVICE MISSOULA MT
823 PM MDT WED OCT 22 2014

Montana AWOS Reports

MALTA       |KM75 230155Z AUTO 00000KT 40SM 06/M01 A2983 RMK AO1 T00561005
LAUREL      |K6S8 230215Z AUTO 00000KT 40SM 09/M06 A2995 RMK AO1 T00941060
ROUNDUP     |KRPX 230215Z AUTO 00000KT 40SM 11/M04 A2987 RMK AO1 T01061038






000
SXUS55 KMSO 230203
OSOMSO
MONTANA AWOS SUMMARY
NATIONAL WEATHER SERVICE MISSOULA MT
803 PM MDT WED OCT 22 2014

Montana AWOS Reports

SCOBEY      |K9S2 230155Z AUTO 25006KT 40SM 08/M01 A2985 RMK AO1 T00831010
PLAINS      |KS34 230155Z AUTO 00000KT 40SM 10/03 A2989 RMK AO1 T01000033
LAUREL      |K6S8 230155Z AUTO 00000KT 40SM 11/M06 A2995 RMK AO1 T01061055
ROUNDUP     |KRPX 230155Z AUTO 00000KT 40SM 11/M04 A2987 RMK AO1 T01061038






000
SXUS55 KMSO 230203
OSOMSO
MONTANA AWOS SUMMARY
NATIONAL WEATHER SERVICE MISSOULA MT
803 PM MDT WED OCT 22 2014

Montana AWOS Reports

SCOBEY      |K9S2 230155Z AUTO 25006KT 40SM 08/M01 A2985 RMK AO1 T00831010
PLAINS      |KS34 230155Z AUTO 00000KT 40SM 10/03 A2989 RMK AO1 T01000033
LAUREL      |K6S8 230155Z AUTO 00000KT 40SM 11/M06 A2995 RMK AO1 T01061055
ROUNDUP     |KRPX 230155Z AUTO 00000KT 40SM 11/M04 A2987 RMK AO1 T01061038






000
SXUS55 KMSO 230144
OSOMSO
MONTANA AWOS SUMMARY
NATIONAL WEATHER SERVICE MISSOULA MT
743 PM MDT WED OCT 22 2014

Montana AWOS Reports

LAUREL      |K6S8 230135Z AUTO 00000KT 40SM 11/M06 A2996 RMK AO1 T01061060
ROUNDUP     |KRPX 230135Z AUTO 26005KT 40SM 11/M04 A2986 RMK AO1 T01111038






000
SXUS55 KMSO 230144
OSOMSO
MONTANA AWOS SUMMARY
NATIONAL WEATHER SERVICE MISSOULA MT
743 PM MDT WED OCT 22 2014

Montana AWOS Reports

LAUREL      |K6S8 230135Z AUTO 00000KT 40SM 11/M06 A2996 RMK AO1 T01061060
ROUNDUP     |KRPX 230135Z AUTO 26005KT 40SM 11/M04 A2986 RMK AO1 T01111038






000
SXUS55 KMSO 230133
OSOMSO
MONTANA AWOS SUMMARY
NATIONAL WEATHER SERVICE MISSOULA MT
733 PM MDT WED OCT 22 2014

Montana AWOS Reports

SCOBEY      |K9S2 230055Z AUTO 00000KT 40SM 09/M01 A2986 RMK AO1 T00891010






000
SXUS55 KMSO 230133
OSOMSO
MONTANA AWOS SUMMARY
NATIONAL WEATHER SERVICE MISSOULA MT
733 PM MDT WED OCT 22 2014

Montana AWOS Reports

SCOBEY      |K9S2 230055Z AUTO 00000KT 40SM 09/M01 A2986 RMK AO1 T00891010






000
SXUS55 KMSO 230123
OSOMSO
MONTANA AWOS SUMMARY
NATIONAL WEATHER SERVICE MISSOULA MT
722 PM MDT WED OCT 22 2014

Montana AWOS Reports

LAUREL      |K6S8 230115Z AUTO 00000KT 40SM 11/M07 A2995 RMK AO1 T01111071
ROUNDUP     |KRPX 230115Z AUTO 26008KT 40SM 12/M04 A2985 RMK AO1 T01221038






000
SXUS55 KMSO 230123
OSOMSO
MONTANA AWOS SUMMARY
NATIONAL WEATHER SERVICE MISSOULA MT
722 PM MDT WED OCT 22 2014

Montana AWOS Reports

LAUREL      |K6S8 230115Z AUTO 00000KT 40SM 11/M07 A2995 RMK AO1 T01111071
ROUNDUP     |KRPX 230115Z AUTO 26008KT 40SM 12/M04 A2985 RMK AO1 T01221038






000
SXUS55 KMSO 230104
OSOMSO
MONTANA AWOS SUMMARY
NATIONAL WEATHER SERVICE MISSOULA MT
703 PM MDT WED OCT 22 2014

Montana AWOS Reports

LAUREL      |K6S8 230055Z AUTO 00000KT 40SM 12/M07 A2996 RMK AO1 T01171071
ROUNDUP     |KRPX 230055Z AUTO 25009KT 40SM 13/M03 A2985 RMK AO1 T01281032
PLAINS      |KS34 230055Z AUTO 00000KT 25SM 14/04 A2989 RMK AO1 T01440039






000
SXUS55 KMSO 230104
OSOMSO
MONTANA AWOS SUMMARY
NATIONAL WEATHER SERVICE MISSOULA MT
703 PM MDT WED OCT 22 2014

Montana AWOS Reports

LAUREL      |K6S8 230055Z AUTO 00000KT 40SM 12/M07 A2996 RMK AO1 T01171071
ROUNDUP     |KRPX 230055Z AUTO 25009KT 40SM 13/M03 A2985 RMK AO1 T01281032
PLAINS      |KS34 230055Z AUTO 00000KT 25SM 14/04 A2989 RMK AO1 T01440039






000
SXUS55 KMSO 230043
OSOMSO
MONTANA AWOS SUMMARY
NATIONAL WEATHER SERVICE MISSOULA MT
643 PM MDT WED OCT 22 2014

Montana AWOS Reports

ROUNDUP     |KRPX 230035Z AUTO 25011KT 40SM 13/M03 A2985 RMK AO1 T01331032
LAUREL      |K6S8 230035Z AUTO 00000KT 40SM 13/M07 A2995 RMK AO1 T01331066






000
SXUS55 KMSO 230043
OSOMSO
MONTANA AWOS SUMMARY
NATIONAL WEATHER SERVICE MISSOULA MT
643 PM MDT WED OCT 22 2014

Montana AWOS Reports

ROUNDUP     |KRPX 230035Z AUTO 25011KT 40SM 13/M03 A2985 RMK AO1 T01331032
LAUREL      |K6S8 230035Z AUTO 00000KT 40SM 13/M07 A2995 RMK AO1 T01331066






000
SXUS55 KMSO 230023
OSOMSO
MONTANA AWOS SUMMARY
NATIONAL WEATHER SERVICE MISSOULA MT
623 PM MDT WED OCT 22 2014

Montana AWOS Reports

LAUREL      |K6S8 230015Z AUTO 25004KT 40SM 15/M06 A2995 RMK AO1 T01501060
ROUNDUP     |KRPX 230015Z AUTO 25010G17KT 40SM 14/M03 A2985 RMK AO1 T01391032






000
SXUS55 KMSO 230023
OSOMSO
MONTANA AWOS SUMMARY
NATIONAL WEATHER SERVICE MISSOULA MT
623 PM MDT WED OCT 22 2014

Montana AWOS Reports

LAUREL      |K6S8 230015Z AUTO 25004KT 40SM 15/M06 A2995 RMK AO1 T01501060
ROUNDUP     |KRPX 230015Z AUTO 25010G17KT 40SM 14/M03 A2985 RMK AO1 T01391032






000
SXUS55 KMSO 230013
OSOMSO
MONTANA AWOS SUMMARY
NATIONAL WEATHER SERVICE MISSOULA MT
612 PM MDT WED OCT 22 2014

Montana AWOS Reports

MALTA       |KM75 222355Z AUTO 00000KT 40SM 14/02 A2982 RMK AO1 T01390022






000
SXUS55 KMSO 230013
OSOMSO
MONTANA AWOS SUMMARY
NATIONAL WEATHER SERVICE MISSOULA MT
612 PM MDT WED OCT 22 2014

Montana AWOS Reports

MALTA       |KM75 222355Z AUTO 00000KT 40SM 14/02 A2982 RMK AO1 T01390022






000
SXUS55 KMSO 230003
OSOMSO
MONTANA AWOS SUMMARY
NATIONAL WEATHER SERVICE MISSOULA MT
603 PM MDT WED OCT 22 2014

Montana AWOS Reports

ROUNDUP     |KRPX 222355Z AUTO 25015G22KT 40SM 15/M04 A2984 RMK AO1 T01501038
SCOBEY      |K9S2 222355Z AUTO 25006KT 40SM 13/00 A2982 RMK AO1 T01330000
LAUREL      |K6S8 222355Z AUTO 00000KT 40SM 17/M06 A2995 RMK AO1 T01671060






000
SXUS55 KMSO 230003
OSOMSO
MONTANA AWOS SUMMARY
NATIONAL WEATHER SERVICE MISSOULA MT
603 PM MDT WED OCT 22 2014

Montana AWOS Reports

ROUNDUP     |KRPX 222355Z AUTO 25015G22KT 40SM 15/M04 A2984 RMK AO1 T01501038
SCOBEY      |K9S2 222355Z AUTO 25006KT 40SM 13/00 A2982 RMK AO1 T01330000
LAUREL      |K6S8 222355Z AUTO 00000KT 40SM 17/M06 A2995 RMK AO1 T01671060






000
SXUS55 KMSO 222344
OSOMSO
MONTANA AWOS SUMMARY
NATIONAL WEATHER SERVICE MISSOULA MT
543 PM MDT WED OCT 22 2014

Montana AWOS Reports

ROUNDUP     |KRPX 222335Z AUTO 25017G23KT 40SM 16/M04 A2984 RMK AO1 T01561038
LAUREL      |K6S8 222335Z AUTO 24005KT 40SM 18/M07 A2994 RMK AO1 T01781066






000
SXUS55 KMSO 222334
OSOMSO
MONTANA AWOS SUMMARY
NATIONAL WEATHER SERVICE MISSOULA MT
533 PM MDT WED OCT 22 2014

Montana AWOS Reports

MALTA       |KM75 222255Z AUTO 21011G15KT 40SM 17/00 A2981 RMK AO1 T01670000






000
SXUS55 KMSO 222323
OSOMSO
MONTANA AWOS SUMMARY
NATIONAL WEATHER SERVICE MISSOULA MT
522 PM MDT WED OCT 22 2014

Montana AWOS Reports

LAUREL      |K6S8 222315Z AUTO 23005KT 40SM 18/M06 A2994 RMK AO1 T01831060
ROUNDUP     |KRPX 222315Z AUTO 25015G21KT 40SM 16/M04 A2984 RMK AO1 T01611038






000
SXUS55 KMSO 222303
OSOMSO
MONTANA AWOS SUMMARY
NATIONAL WEATHER SERVICE MISSOULA MT
503 PM MDT WED OCT 22 2014

Montana AWOS Reports

ROUNDUP     |KRPX 222255Z AUTO 25013G21KT 40SM 16/M04 A2984 RMK AO1 T01611043
LAUREL      |K6S8 222255Z AUTO 24009G14KT 40SM 18/M07 A2994 RMK AO1 T01831066






000
SXUS55 KMSO 222303
OSOMSO
MONTANA AWOS SUMMARY
NATIONAL WEATHER SERVICE MISSOULA MT
503 PM MDT WED OCT 22 2014

Montana AWOS Reports

ROUNDUP     |KRPX 222255Z AUTO 25013G21KT 40SM 16/M04 A2984 RMK AO1 T01611043
LAUREL      |K6S8 222255Z AUTO 24009G14KT 40SM 18/M07 A2994 RMK AO1 T01831066






000
SXUS55 KMSO 222243
OSOMSO
MONTANA AWOS SUMMARY
NATIONAL WEATHER SERVICE MISSOULA MT
443 PM MDT WED OCT 22 2014

Montana AWOS Reports

LAUREL      |K6S8 222235Z AUTO 22008KT 40SM 19/M07 A2994 RMK AO1 T01891071
ROUNDUP     |KRPX 222235Z AUTO 26015G22KT 40SM 17/M04 A2984 RMK AO1 T01671043






000
SXUS55 KMSO 222243
OSOMSO
MONTANA AWOS SUMMARY
NATIONAL WEATHER SERVICE MISSOULA MT
443 PM MDT WED OCT 22 2014

Montana AWOS Reports

LAUREL      |K6S8 222235Z AUTO 22008KT 40SM 19/M07 A2994 RMK AO1 T01891071
ROUNDUP     |KRPX 222235Z AUTO 26015G22KT 40SM 17/M04 A2984 RMK AO1 T01671043






000
SXUS55 KMSO 222223
OSOMSO
MONTANA AWOS SUMMARY
NATIONAL WEATHER SERVICE MISSOULA MT
423 PM MDT WED OCT 22 2014

Montana AWOS Reports

LAUREL      |K6S8 222215Z AUTO 23008KT 40SM 19/M06 A2994 RMK AO1 T01891060
ROUNDUP     |KRPX 222215Z AUTO 26015G20KT 40SM 17/M04 A2984 RMK AO1 T01671043






000
SXUS55 KMSO 222203
OSOMSO
MONTANA AWOS SUMMARY
NATIONAL WEATHER SERVICE MISSOULA MT
403 PM MDT WED OCT 22 2014

Montana AWOS Reports

LAUREL      |K6S8 222155Z AUTO 20008KT 40SM 19/M07 A2994 RMK AO1 T01891071
ROUNDUP     |KRPX 222155Z AUTO 26015G23KT 40SM 17/M05 A2984 RMK AO1 T01721049
SCOBEY      |K9S2 222155Z AUTO 26018G24KT 40SM 16/01 A2980 RMK AO1 T01610011
PLAINS      |KS34 222155Z AUTO 19008KT 40SM 18/02 A2992 RMK AO1 T01780022
MALTA       |KM75 222155Z AUTO 24005KT 40SM 17/00 A2982 RMK AO1 T01720000






000
SXUS55 KMSO 222143
OSOMSO
MONTANA AWOS SUMMARY
NATIONAL WEATHER SERVICE MISSOULA MT
343 PM MDT WED OCT 22 2014

Montana AWOS Reports

LAUREL      |K6S8 222135Z AUTO 22010G14KT 40SM 19/M07 A2994 RMK AO1 T01891071
ROUNDUP     |KRPX 222135Z AUTO 24009G17KT 40SM 17/M05 A2985 RMK AO1 T01721049






000
SXUS55 KMSO 222123
OSOMSO
MONTANA AWOS SUMMARY
NATIONAL WEATHER SERVICE MISSOULA MT
323 PM MDT WED OCT 22 2014

Montana AWOS Reports

ROUNDUP     |KRPX 222115Z AUTO 24013KT 40SM 17/M05 A2985 RMK AO1 T01671049
LAUREL      |K6S8 222115Z AUTO 21008KT 40SM 18/M07 A2995 RMK AO1 T01831071






000
SXUS55 KMSO 222104
OSOMSO
MONTANA AWOS SUMMARY
NATIONAL WEATHER SERVICE MISSOULA MT
303 PM MDT WED OCT 22 2014

Montana AWOS Reports

LAUREL      |K6S8 222055Z AUTO 22010G17KT 40SM 18/M06 A2995 RMK AO1 T01831060
ROUNDUP     |KRPX 222055Z AUTO 24011G17KT 40SM 17/M05 A2985 RMK AO1 T01671049
SCOBEY      |K9S2 222055Z AUTO 25023G28KT 40SM 16/01 A2980 RMK AO1 T01610011
MALTA       |KM75 222055Z AUTO 26009G15KT 40SM 17/00 A2982 RMK AO1 T01670000






000
SXUS55 KMSO 222043
OSOMSO
MONTANA AWOS SUMMARY
NATIONAL WEATHER SERVICE MISSOULA MT
243 PM MDT WED OCT 22 2014

Montana AWOS Reports

LAUREL      |K6S8 222035Z AUTO 20005KT 40SM 18/M05 A2995 RMK AO1 T01831049
ROUNDUP     |KRPX 222035Z AUTO 25015G25KT 40SM 17/M04 A2985 RMK AO1 T01671043






000
SXUS55 KMSO 222024
OSOMSO
MONTANA AWOS SUMMARY
NATIONAL WEATHER SERVICE MISSOULA MT
223 PM MDT WED OCT 22 2014

Montana AWOS Reports

LAUREL      |K6S8 222015Z AUTO 21004KT 40SM 17/M06 A2996 RMK AO1 T01721055
ROUNDUP     |KRPX 222015Z AUTO 24014G22KT 40SM 16/M04 A2986 RMK AO1 T01611038






000
SXUS55 KMSO 222024
OSOMSO
MONTANA AWOS SUMMARY
NATIONAL WEATHER SERVICE MISSOULA MT
223 PM MDT WED OCT 22 2014

Montana AWOS Reports

LAUREL      |K6S8 222015Z AUTO 21004KT 40SM 17/M06 A2996 RMK AO1 T01721055
ROUNDUP     |KRPX 222015Z AUTO 24014G22KT 40SM 16/M04 A2986 RMK AO1 T01611038






000
SXUS55 KMSO 222003
OSOMSO
MONTANA AWOS SUMMARY
NATIONAL WEATHER SERVICE MISSOULA MT
203 PM MDT WED OCT 22 2014

Montana AWOS Reports

LAUREL      |K6S8 221955Z AUTO 00000KT 40SM 17/M05 A2996 RMK AO1 T01721049
ROUNDUP     |KRPX 221955Z AUTO 23015G20KT 40SM 16/M03 A2987 RMK AO1 T01611032
MALTA       |KM75 221955Z AUTO 27010G17KT 40SM 17/01 A2984 RMK AO1 T01670011






000
SXUS55 KMSO 221943
OSOMSO
MONTANA AWOS SUMMARY
NATIONAL WEATHER SERVICE MISSOULA MT
143 PM MDT WED OCT 22 2014

Montana AWOS Reports

LAUREL      |K6S8 221935Z AUTO 21009G13KT 40SM 17/M04 A2996 RMK AO1 T01671043
ROUNDUP     |KRPX 221935Z AUTO 25015G25KT 40SM 16/M04 A2987 RMK AO1 T01561038






000
SXUS55 KMSO 221943
OSOMSO
MONTANA AWOS SUMMARY
NATIONAL WEATHER SERVICE MISSOULA MT
143 PM MDT WED OCT 22 2014

Montana AWOS Reports

LAUREL      |K6S8 221935Z AUTO 21009G13KT 40SM 17/M04 A2996 RMK AO1 T01671043
ROUNDUP     |KRPX 221935Z AUTO 25015G25KT 40SM 16/M04 A2987 RMK AO1 T01561038






000
SXUS55 KMSO 221923
OSOMSO
MONTANA AWOS SUMMARY
NATIONAL WEATHER SERVICE MISSOULA MT
123 PM MDT WED OCT 22 2014

Montana AWOS Reports

LAUREL      |K6S8 221915Z AUTO 21007KT 40SM 17/M04 A2997 RMK AO1 T01671043
ROUNDUP     |KRPX 221915Z AUTO 25016G25KT 40SM 15/M04 A2987 RMK AO1 T01501043






000
SXUS55 KMSO 221913
OSOMSO
MONTANA AWOS SUMMARY
NATIONAL WEATHER SERVICE MISSOULA MT
112 PM MDT WED OCT 22 2014

Montana AWOS Reports

MALTA       |KM75 221855Z AUTO 26014G22KT 40SM 16/02 A2985 RMK AO1 T01610017






000
SXUS55 KMSO 221903
OSOMSO
MONTANA AWOS SUMMARY
NATIONAL WEATHER SERVICE MISSOULA MT
103 PM MDT WED OCT 22 2014

Montana AWOS Reports

LAUREL      |K6S8 221855Z AUTO 21009G13KT 40SM 16/M04 A2998 RMK AO1 T01561038
ROUNDUP     |KRPX 221855Z AUTO 25019G25KT 40SM 15/M04 A2988 RMK AO1 T01501038






000
SXUS55 KMSO 221843
OSOMSO
MONTANA AWOS SUMMARY
NATIONAL WEATHER SERVICE MISSOULA MT
1243 PM MDT WED OCT 22 2014

Montana AWOS Reports

LAUREL      |K6S8 221835Z AUTO 21008KT 40SM 15/M04 A2999 RMK AO1 T01501043
ROUNDUP     |KRPX 221835Z AUTO 25017G26KT 40SM 15/M04 A2988 RMK AO1 T01501038






000
SXUS55 KMSO 221824
OSOMSO
MONTANA AWOS SUMMARY
NATIONAL WEATHER SERVICE MISSOULA MT
1223 PM MDT WED OCT 22 2014

Montana AWOS Reports

LAUREL      |K6S8 221815Z AUTO 21008KT 40SM 15/M04 A2999 RMK AO1 T01501038
ROUNDUP     |KRPX 221815Z AUTO 23013G20KT 40SM 14/M03 A2989 RMK AO1 T01441032






000
SXUS55 KMSO 221804
OSOMSO
MONTANA AWOS SUMMARY
NATIONAL WEATHER SERVICE MISSOULA MT
1203 PM MDT WED OCT 22 2014

Montana AWOS Reports

LAUREL      |K6S8 221755Z AUTO 20009G14KT 40SM 14/M04 A3000 RMK AO1 T01441043
ROUNDUP     |KRPX 221755Z AUTO 22013G19KT 40SM 14/M03 A2990 RMK AO1 T01391032






000
SXUS55 KMSO 221804
OSOMSO
MONTANA AWOS SUMMARY
NATIONAL WEATHER SERVICE MISSOULA MT
1203 PM MDT WED OCT 22 2014

Montana AWOS Reports

LAUREL      |K6S8 221755Z AUTO 20009G14KT 40SM 14/M04 A3000 RMK AO1 T01441043
ROUNDUP     |KRPX 221755Z AUTO 22013G19KT 40SM 14/M03 A2990 RMK AO1 T01391032






000
SXUS55 KMSO 221743
OSOMSO
MONTANA AWOS SUMMARY
NATIONAL WEATHER SERVICE MISSOULA MT
1143 AM MDT WED OCT 22 2014

Montana AWOS Reports

LAUREL      |K6S8 221735Z AUTO 18004KT 40SM 14/M03 A3000 RMK AO1 T01391032
ROUNDUP     |KRPX 221735Z AUTO 24015G20KT 40SM 14/M03 A2990 RMK AO1 T01391032






000
SXUS55 KMSO 221743
OSOMSO
MONTANA AWOS SUMMARY
NATIONAL WEATHER SERVICE MISSOULA MT
1143 AM MDT WED OCT 22 2014

Montana AWOS Reports

LAUREL      |K6S8 221735Z AUTO 18004KT 40SM 14/M03 A3000 RMK AO1 T01391032
ROUNDUP     |KRPX 221735Z AUTO 24015G20KT 40SM 14/M03 A2990 RMK AO1 T01391032






000
SXUS55 KMSO 221733
OSOMSO
MONTANA AWOS SUMMARY
NATIONAL WEATHER SERVICE MISSOULA MT
1133 AM MDT WED OCT 22 2014

Montana AWOS Reports

MALTA       |KM75 221655Z AUTO 24015G21KT 40SM 13/02 A2985 RMK AO1 T01330022






000
SXUS55 KMSO 221733
OSOMSO
MONTANA AWOS SUMMARY
NATIONAL WEATHER SERVICE MISSOULA MT
1133 AM MDT WED OCT 22 2014

Montana AWOS Reports

MALTA       |KM75 221655Z AUTO 24015G21KT 40SM 13/02 A2985 RMK AO1 T01330022






000
SXUS55 KMSO 221723
OSOMSO
MONTANA AWOS SUMMARY
NATIONAL WEATHER SERVICE MISSOULA MT
1123 AM MDT WED OCT 22 2014

Montana AWOS Reports

LAUREL      |K6S8 221715Z AUTO 19009G13KT 40SM 13/M04 A3000 RMK AO1 T01281038
ROUNDUP     |KRPX 221715Z AUTO 24017G23KT 40SM 13/M04 A2991 RMK AO1 T01331038






000
SXUS55 KMSO 221723
OSOMSO
MONTANA AWOS SUMMARY
NATIONAL WEATHER SERVICE MISSOULA MT
1123 AM MDT WED OCT 22 2014

Montana AWOS Reports

LAUREL      |K6S8 221715Z AUTO 19009G13KT 40SM 13/M04 A3000 RMK AO1 T01281038
ROUNDUP     |KRPX 221715Z AUTO 24017G23KT 40SM 13/M04 A2991 RMK AO1 T01331038






000
SXUS55 KMSO 221703
OSOMSO
MONTANA AWOS SUMMARY
NATIONAL WEATHER SERVICE MISSOULA MT
1103 AM MDT WED OCT 22 2014

Montana AWOS Reports

LAUREL      |K6S8 221655Z AUTO VRB05KT 40SM 12/M03 A3001 RMK AO1 T01221032
ROUNDUP     |KRPX 221655Z AUTO 25020G26KT 40SM 13/M03 A2991 RMK AO1 T01281032
SCOBEY      |K9S2 221655Z AUTO 27012G20KT 40SM 11/05 A2979 RMK AO1 T01060050






000
SXUS55 KMSO 221703
OSOMSO
MONTANA AWOS SUMMARY
NATIONAL WEATHER SERVICE MISSOULA MT
1103 AM MDT WED OCT 22 2014

Montana AWOS Reports

LAUREL      |K6S8 221655Z AUTO VRB05KT 40SM 12/M03 A3001 RMK AO1 T01221032
ROUNDUP     |KRPX 221655Z AUTO 25020G26KT 40SM 13/M03 A2991 RMK AO1 T01281032
SCOBEY      |K9S2 221655Z AUTO 27012G20KT 40SM 11/05 A2979 RMK AO1 T01060050






000
SXUS55 KMSO 221653
OSOMSO
MONTANA AWOS SUMMARY
NATIONAL WEATHER SERVICE MISSOULA MT
1053 AM MDT WED OCT 22 2014

Montana AWOS Reports

LAUREL      |K6S8 221635Z AUTO 00000KT 40SM 11/M03 A3001 RMK AO1 T01061027
ROUNDUP     |KRPX 221635Z AUTO 25023G28KT 40SM 12/M03 A2991 RMK AO1 T01221032






000
SXUS55 KMSO 221653
OSOMSO
MONTANA AWOS SUMMARY
NATIONAL WEATHER SERVICE MISSOULA MT
1053 AM MDT WED OCT 22 2014

Montana AWOS Reports

LAUREL      |K6S8 221635Z AUTO 00000KT 40SM 11/M03 A3001 RMK AO1 T01061027
ROUNDUP     |KRPX 221635Z AUTO 25023G28KT 40SM 12/M03 A2991 RMK AO1 T01221032






000
SXUS55 KMSO 221633
OSOMSO
MONTANA AWOS SUMMARY
NATIONAL WEATHER SERVICE MISSOULA MT
1033 AM MDT WED OCT 22 2014

Montana AWOS Reports

MALTA       |KM75 221555Z AUTO 25010G17KT 40SM 12/03 A2985 RMK AO1 T01220033






000
SXUS55 KMSO 221633
OSOMSO
MONTANA AWOS SUMMARY
NATIONAL WEATHER SERVICE MISSOULA MT
1033 AM MDT WED OCT 22 2014

Montana AWOS Reports

MALTA       |KM75 221555Z AUTO 25010G17KT 40SM 12/03 A2985 RMK AO1 T01220033






000
SXUS55 KMSO 221623
OSOMSO
MONTANA AWOS SUMMARY
NATIONAL WEATHER SERVICE MISSOULA MT
1023 AM MDT WED OCT 22 2014

Montana AWOS Reports

LAUREL      |K6S8 221615Z AUTO 00000KT 15SM 10/M02 A3002 RMK AO1 T01001021
ROUNDUP     |KRPX 221615Z AUTO 25012G20KT 40SM 12/M02 A2991 RMK AO1 T01171021






000
SXUS55 KMSO 221623
OSOMSO
MONTANA AWOS SUMMARY
NATIONAL WEATHER SERVICE MISSOULA MT
1023 AM MDT WED OCT 22 2014

Montana AWOS Reports

LAUREL      |K6S8 221615Z AUTO 00000KT 15SM 10/M02 A3002 RMK AO1 T01001021
ROUNDUP     |KRPX 221615Z AUTO 25012G20KT 40SM 12/M02 A2991 RMK AO1 T01171021






000
SXUS55 KMSO 221613
OSOMSO
MONTANA AWOS SUMMARY
NATIONAL WEATHER SERVICE MISSOULA MT
1013 AM MDT WED OCT 22 2014

Montana AWOS Reports

ROUNDUP     |KRPX 221555Z AUTO 40SM 11/M02 A2991 RMK AO1 T01061021






000
SXUS55 KMSO 221604
OSOMSO
MONTANA AWOS SUMMARY
NATIONAL WEATHER SERVICE MISSOULA MT
1003 AM MDT WED OCT 22 2014

Montana AWOS Reports

ROUNDUP     |KRPX 221555Z AUTO 40SM 11/M02 A2991 RMK AO1 T01061021
PLAINS      |KS34 221555Z AUTO 00000KT 1/4SM 02/M01 A3004 RMK AO1 T00171005
LAUREL      |K6S8 221555Z AUTO 00000KT 40SM 08/M03 A3002 RMK AO1 T00831027
SCOBEY      |K9S2 221555Z AUTO 25013G20KT 40SM 10/05 A2979 RMK AO1 T01000050






000
SXUS55 KMSO 221604
OSOMSO
MONTANA AWOS SUMMARY
NATIONAL WEATHER SERVICE MISSOULA MT
1003 AM MDT WED OCT 22 2014

Montana AWOS Reports

ROUNDUP     |KRPX 221555Z AUTO 40SM 11/M02 A2991 RMK AO1 T01061021
PLAINS      |KS34 221555Z AUTO 00000KT 1/4SM 02/M01 A3004 RMK AO1 T00171005
LAUREL      |K6S8 221555Z AUTO 00000KT 40SM 08/M03 A3002 RMK AO1 T00831027
SCOBEY      |K9S2 221555Z AUTO 25013G20KT 40SM 10/05 A2979 RMK AO1 T01000050






000
SXUS55 KMSO 221543
OSOMSO
MONTANA AWOS SUMMARY
NATIONAL WEATHER SERVICE MISSOULA MT
943 AM MDT WED OCT 22 2014

Montana AWOS Reports

ROUNDUP     |KRPX 221535Z AUTO 40SM 09/M02 A2992 RMK AO1 T00941016
LAUREL      |K6S8 221535Z AUTO 00000KT 40SM 07/M03 A3002 RMK AO1 T00721027






000
SXUS55 KMSO 221543
OSOMSO
MONTANA AWOS SUMMARY
NATIONAL WEATHER SERVICE MISSOULA MT
943 AM MDT WED OCT 22 2014

Montana AWOS Reports

ROUNDUP     |KRPX 221535Z AUTO 40SM 09/M02 A2992 RMK AO1 T00941016
LAUREL      |K6S8 221535Z AUTO 00000KT 40SM 07/M03 A3002 RMK AO1 T00721027






000
SXUS55 KMSO 221523
OSOMSO
MONTANA AWOS SUMMARY
NATIONAL WEATHER SERVICE MISSOULA MT
923 AM MDT WED OCT 22 2014

Montana AWOS Reports

ROUNDUP     |KRPX 221515Z AUTO 00000KT 40SM 07/M01 A2992 RMK AO1 T00671010
LAUREL      |K6S8 221515Z AUTO 00000KT 40SM 06/M03 A3002 RMK AO1 T00611032






000
SXUS55 KMSO 221513
OSOMSO
MONTANA AWOS SUMMARY
NATIONAL WEATHER SERVICE MISSOULA MT
913 AM MDT WED OCT 22 2014

Montana AWOS Reports

SCOBEY      |K9S2 221455Z AUTO 40SM 09/04 A2978 RMK AO1 T00890044
MALTA       |KM75 221455Z AUTO 23009G14KT 40SM 10/03 A2984 RMK AO1 T01000028






000
SXUS55 KMSO 221504
OSOMSO
MONTANA AWOS SUMMARY
NATIONAL WEATHER SERVICE MISSOULA MT
903 AM MDT WED OCT 22 2014

Montana AWOS Reports

LAUREL      |K6S8 221455Z AUTO 00000KT 40SM 05/M03 A3001 RMK AO1 T00501032
ROUNDUP     |KRPX 221455Z AUTO 20004KT 40SM 06/M02 A2991 RMK AO1 T00611016
PLAINS      |KS34 221455Z AUTO 00000KT 1/4SM 01/M02 A3004 RMK AO1 T00061016






000
SXUS55 KMSO 221453
OSOMSO
MONTANA AWOS SUMMARY
NATIONAL WEATHER SERVICE MISSOULA MT
853 AM MDT WED OCT 22 2014

Montana AWOS Reports

MALTA       |KM75 221355Z AUTO 26009G15KT 40SM 10/03 A2981 RMK AO1 T01000028






000
SXUS55 KMSO 221443
OSOMSO
MONTANA AWOS SUMMARY
NATIONAL WEATHER SERVICE MISSOULA MT
843 AM MDT WED OCT 22 2014

Montana AWOS Reports

LAUREL      |K6S8 221435Z AUTO 00000KT 40SM 04/M04 A3001 RMK AO1 T00391038
ROUNDUP     |KRPX 221435Z AUTO 00000KT 40SM 06/M02 A2991 RMK AO1 T00561016






000
SXUS55 KMSO 221424
OSOMSO
MONTANA AWOS SUMMARY
NATIONAL WEATHER SERVICE MISSOULA MT
823 AM MDT WED OCT 22 2014

Montana AWOS Reports

LAUREL      |K6S8 221415Z AUTO 00000KT 40SM 03/M04 A3001 RMK AO1 T00281043
ROUNDUP     |KRPX 221415Z AUTO 21006KT 40SM 07/M02 A2990 RMK AO1 T00671016






000
SXUS55 KMSO 221404
OSOMSO
MONTANA AWOS SUMMARY
NATIONAL WEATHER SERVICE MISSOULA MT
803 AM MDT WED OCT 22 2014

Montana AWOS Reports

LAUREL      |K6S8 221355Z AUTO 00000KT 40SM 03/M04 A3001 RMK AO1 T00331043
ROUNDUP     |KRPX 221355Z AUTO 00000KT 40SM 07/M02 A2990 RMK AO1 T00721021
PLAINS      |KS34 221355Z AUTO 00000KT 1/4SM 01/M02 A3003 RMK AO1 T00061016
SCOBEY      |K9S2 221355Z AUTO 24012G17KT 40SM 09/05 A2977 RMK AO1 T00890050






000
SXUS55 KMSO 221323
OSOMSO
MONTANA AWOS SUMMARY
NATIONAL WEATHER SERVICE MISSOULA MT
723 AM MDT WED OCT 22 2014

Montana AWOS Reports

LAUREL      |K6S8 221315Z AUTO 00000KT 40SM 06/M04 A2999 RMK AO1 T00561038
ROUNDUP     |KRPX 221315Z AUTO 24012G17KT 40SM 07/M02 A2988 RMK AO1 T00721016






000
SXUS55 KMSO 221303
OSOMSO
MONTANA AWOS SUMMARY
NATIONAL WEATHER SERVICE MISSOULA MT
703 AM MDT WED OCT 22 2014

Montana AWOS Reports

LAUREL      |K6S8 221255Z AUTO 40SM 09/M05 A2998 RMK AO1 T00891049
ROUNDUP     |KRPX 221255Z AUTO 00000KT 40SM 07/M02 A2989 RMK AO1 T00671021
MALTA       |KM75 221255Z AUTO 00000KT 40SM 09/03 A2982 RMK AO1 T00890033






000
SXUS55 KMSO 221253
OSOMSO
MONTANA AWOS SUMMARY
NATIONAL WEATHER SERVICE MISSOULA MT
653 AM MDT WED OCT 22 2014

Montana AWOS Reports

LAUREL      |K6S8 221235Z AUTO 24011G18KT 40SM 10/M04 A2998 RMK AO1 T01001043
ROUNDUP     |KRPX 221235Z AUTO 24008KT 40SM 08/M02 A2988 RMK AO1 T00781016






000
SXUS55 KMSO 221223
OSOMSO
MONTANA AWOS SUMMARY
NATIONAL WEATHER SERVICE MISSOULA MT
622 AM MDT WED OCT 22 2014

Montana AWOS Reports

LAUREL      |K6S8 221215Z AUTO 25012G20KT 40SM 10/M04 A2998 RMK AO1 T01001043
ROUNDUP     |KRPX 221215Z AUTO 25013G19KT 40SM 08/M02 A2988 RMK AO1 T00781016






000
SXUS55 KMSO 221203
OSOMSO
MONTANA AWOS SUMMARY
NATIONAL WEATHER SERVICE MISSOULA MT
603 AM MDT WED OCT 22 2014

Montana AWOS Reports

LAUREL      |K6S8 221155Z AUTO 26016G21KT 40SM 09/M04 A2998 RMK AO1 T00941038
ROUNDUP     |KRPX 221155Z AUTO 24009G13KT 40SM 07/M02 A2989 RMK AO1 T00671016
MALTA       |KM75 221155Z AUTO 00000KT 40SM 09/04 A2981 RMK AO1 T00940039






000
SXUS55 KMSO 221143
OSOMSO
MONTANA AWOS SUMMARY
NATIONAL WEATHER SERVICE MISSOULA MT
543 AM MDT WED OCT 22 2014

Montana AWOS Reports

LAUREL      |K6S8 221135Z AUTO 25015G25KT 40SM 09/M04 A2998 RMK AO1 T00941038
ROUNDUP     |KRPX 221135Z AUTO 23009KT 40SM 07/M02 A2989 RMK AO1 T00721016






000
SXUS55 KMSO 221124
OSOMSO
MONTANA AWOS SUMMARY
NATIONAL WEATHER SERVICE MISSOULA MT
523 AM MDT WED OCT 22 2014

Montana AWOS Reports

LAUREL      |K6S8 221115Z AUTO 26017G25KT 40SM 10/M03 A2997 RMK AO1 T01001032
ROUNDUP     |KRPX 221115Z AUTO 23009G19KT 40SM 07/M02 A2988 RMK AO1 T00721016






000
SXUS55 KMSO 221104
OSOMSO
MONTANA AWOS SUMMARY
NATIONAL WEATHER SERVICE MISSOULA MT
503 AM MDT WED OCT 22 2014

Montana AWOS Reports

LAUREL      |K6S8 221055Z AUTO 26018G28KT 40SM 10/M03 A2997 RMK AO1 T01001032
ROUNDUP     |KRPX 221055Z AUTO 23013G17KT 40SM 07/M02 A2987 RMK AO1 T00721016






000
SXUS55 KMSO 221043
OSOMSO
MONTANA AWOS SUMMARY
NATIONAL WEATHER SERVICE MISSOULA MT
443 AM MDT WED OCT 22 2014

Montana AWOS Reports

LAUREL      |K6S8 221035Z AUTO 26019G28KT 40SM 10/M03 A2996 RMK AO1 T01001032
ROUNDUP     |KRPX 221035Z AUTO 23013G20KT 40SM 07/M02 A2987 RMK AO1 T00721016






000
SXUS55 KMSO 221023
OSOMSO
MONTANA AWOS SUMMARY
NATIONAL WEATHER SERVICE MISSOULA MT
423 AM MDT WED OCT 22 2014

Montana AWOS Reports

LAUREL      |K6S8 221015Z AUTO 26018G25KT 40SM 10/M03 A2996 RMK AO1 T01001027
ROUNDUP     |KRPX 221015Z AUTO 21006KT 40SM 07/M02 A2986 RMK AO1 T00671016






000
SXUS55 KMSO 221003
OSOMSO
MONTANA AWOS SUMMARY
NATIONAL WEATHER SERVICE MISSOULA MT
403 AM MDT WED OCT 22 2014

Montana AWOS Reports

LAUREL      |K6S8 220955Z AUTO 26019G27KT 40SM 10/M03 A2995 RMK AO1 T01001032
ROUNDUP     |KRPX 220955Z AUTO 23010KT 40SM 07/M01 A2986 RMK AO1 T00721010
MALTA       |KM75 220955Z AUTO 23009G13KT 40SM 11/04 A2978 RMK AO1 T01060044
SCOBEY      |K9S2 220955Z AUTO 24007KT 40SM 08/04 A2974 RMK AO1 T00830039
PLAINS      |KS34 220955Z AUTO 00000KT 15SM 02/00 A3004 RMK AO1 T00220000






000
SXUS55 KMSO 221003
OSOMSO
MONTANA AWOS SUMMARY
NATIONAL WEATHER SERVICE MISSOULA MT
403 AM MDT WED OCT 22 2014

Montana AWOS Reports

LAUREL      |K6S8 220955Z AUTO 26019G27KT 40SM 10/M03 A2995 RMK AO1 T01001032
ROUNDUP     |KRPX 220955Z AUTO 23010KT 40SM 07/M01 A2986 RMK AO1 T00721010
MALTA       |KM75 220955Z AUTO 23009G13KT 40SM 11/04 A2978 RMK AO1 T01060044
SCOBEY      |K9S2 220955Z AUTO 24007KT 40SM 08/04 A2974 RMK AO1 T00830039
PLAINS      |KS34 220955Z AUTO 00000KT 15SM 02/00 A3004 RMK AO1 T00220000






000
SXUS55 KMSO 220944
OSOMSO
MONTANA AWOS SUMMARY
NATIONAL WEATHER SERVICE MISSOULA MT
343 AM MDT WED OCT 22 2014

Montana AWOS Reports

LAUREL      |K6S8 220935Z AUTO 26019G25KT 40SM 10/M03 A2995 RMK AO1 T01001027
ROUNDUP     |KRPX 220935Z AUTO 22013G18KT 40SM 07/M01 A2986 RMK AO1 T00721010






000
SXUS55 KMSO 220944
OSOMSO
MONTANA AWOS SUMMARY
NATIONAL WEATHER SERVICE MISSOULA MT
343 AM MDT WED OCT 22 2014

Montana AWOS Reports

LAUREL      |K6S8 220935Z AUTO 26019G25KT 40SM 10/M03 A2995 RMK AO1 T01001027
ROUNDUP     |KRPX 220935Z AUTO 22013G18KT 40SM 07/M01 A2986 RMK AO1 T00721010






000
SXUS55 KMSO 220923
OSOMSO
MONTANA AWOS SUMMARY
NATIONAL WEATHER SERVICE MISSOULA MT
323 AM MDT WED OCT 22 2014

Montana AWOS Reports

LAUREL      |K6S8 220915Z AUTO 26014G22KT 40SM 10/M02 A2995 RMK AO1 T01001021
ROUNDUP     |KRPX 220915Z AUTO 22014G18KT 40SM 07/M01 A2985 RMK AO1 T00721005






000
SXUS55 KMSO 220914
OSOMSO
MONTANA AWOS SUMMARY
NATIONAL WEATHER SERVICE MISSOULA MT
313 AM MDT WED OCT 22 2014

Montana AWOS Reports

MALTA       |KM75 220855Z AUTO 25014KT 40SM 11/04 A2977 RMK AO1 T01110044






000
SXUS55 KMSO 220904
OSOMSO
MONTANA AWOS SUMMARY
NATIONAL WEATHER SERVICE MISSOULA MT
303 AM MDT WED OCT 22 2014

Montana AWOS Reports

ROUNDUP     |KRPX 220855Z AUTO 21011G16KT 40SM 07/M01 A2986 RMK AO1 T00721005
SCOBEY      |K9S2 220855Z AUTO 25010G16KT 40SM 09/04 A2971 RMK AO1 T00940044
PLAINS      |KS34 220855Z AUTO 00000KT 25SM 03/01 A3003 RMK AO1 T00280006
LAUREL      |K6S8 220855Z AUTO 26018G25KT 40SM 11/M02 A2994 RMK AO1 T01061021






000
SXUS55 KMSO 220853
OSOMSO
MONTANA AWOS SUMMARY
NATIONAL WEATHER SERVICE MISSOULA MT
252 AM MDT WED OCT 22 2014

Montana AWOS Reports

LAUREL      |K6S8 220835Z AUTO 26013G23KT 40SM 10/M02 A2995 RMK AO1 T01001021
ROUNDUP     |KRPX 220835Z AUTO 24014G21KT 40SM 08/M01 A2985 RMK AO1 T00831005






000
SXUS55 KMSO 220823
OSOMSO
MONTANA AWOS SUMMARY
NATIONAL WEATHER SERVICE MISSOULA MT
223 AM MDT WED OCT 22 2014

Montana AWOS Reports

LAUREL      |K6S8 220815Z AUTO 26016G24KT 40SM 10/M02 A2994 RMK AO1 T01001021
ROUNDUP     |KRPX 220815Z AUTO 24012G21KT 40SM 08/M01 A2984 RMK AO1 T00831005






000
SXUS55 KMSO 220813
OSOMSO
MONTANA AWOS SUMMARY
NATIONAL WEATHER SERVICE MISSOULA MT
213 AM MDT WED OCT 22 2014

Montana AWOS Reports

SCOBEY      |K9S2 220755Z AUTO 25009G13KT 40SM 11/05 A2970 RMK AO1 T01060050
PLAINS      |KS34 220755Z AUTO 00000KT 15SM 03/01 A3003 RMK AO1 T00330006
MALTA       |KM75 220755Z AUTO 40SM 11/04 A2976 RMK AO1 T01060044






000
SXUS55 KMSO 220803
OSOMSO
MONTANA AWOS SUMMARY
NATIONAL WEATHER SERVICE MISSOULA MT
203 AM MDT WED OCT 22 2014

Montana AWOS Reports

ROUNDUP     |KRPX 220755Z AUTO 25014G20KT 40SM 08/M01 A2984 RMK AO1 T00831005
LAUREL      |K6S8 220755Z AUTO 26015G26KT 40SM 11/M02 A2994 RMK AO1 T01061021






000
SXUS55 KMSO 220753
OSOMSO
MONTANA AWOS SUMMARY
NATIONAL WEATHER SERVICE MISSOULA MT
153 AM MDT WED OCT 22 2014

Montana AWOS Reports

LAUREL      |K6S8 220735Z AUTO 26014G26KT 40SM 11/M02 A2994 RMK AO1 T01061021
ROUNDUP     |KRPX 220735Z AUTO 25015G22KT 40SM 08/M01 A2984 RMK AO1 T00831005






000
SXUS55 KMSO 220733
OSOMSO
MONTANA AWOS SUMMARY
NATIONAL WEATHER SERVICE MISSOULA MT
133 AM MDT WED OCT 22 2014

Montana AWOS Reports

LAUREL      |K6S8 220715Z AUTO 26018G26KT 40SM 11/M02 A2993 RMK AO1 T01061021
ROUNDUP     |KRPX 220715Z AUTO 25012G19KT 40SM 08/M01 A2984 RMK AO1 T00831005






000
SXUS55 KMSO 220713
OSOMSO
MONTANA AWOS SUMMARY
NATIONAL WEATHER SERVICE MISSOULA MT
113 AM MDT WED OCT 22 2014

Montana AWOS Reports

PLAINS      |KS34 220655Z AUTO 00000KT 25SM 06/03 A3002 RMK AO1 T00560028
SCOBEY      |K9S2 220655Z AUTO 28004KT 40SM 11/04 A2969 RMK AO1 T01060039
MALTA       |KM75 220655Z AUTO 24008KT 40SM 11/05 A2975 RMK AO1 T01060050






000
SXUS55 KMSO 220703
OSOMSO
MONTANA AWOS SUMMARY
NATIONAL WEATHER SERVICE MISSOULA MT
103 AM MDT WED OCT 22 2014

Montana AWOS Reports

ROUNDUP     |KRPX 220655Z AUTO 25019KT 40SM 09/M01 A2983 RMK AO1 T00891005
LAUREL      |K6S8 220655Z AUTO 25015G23KT 40SM 11/M02 A2993 RMK AO1 T01061021






000
SXUS55 KMSO 220643
OSOMSO
MONTANA AWOS SUMMARY
NATIONAL WEATHER SERVICE MISSOULA MT
1243 AM MDT WED OCT 22 2014

Montana AWOS Reports

LAUREL      |K6S8 220635Z AUTO 27010G15KT 40SM 09/M02 A2993 RMK AO1 T00891021
ROUNDUP     |KRPX 220635Z AUTO 26012KT 40SM 08/00 A2983 RMK AO1 T00830000






000
SXUS55 KMSO 220623
OSOMSO
MONTANA AWOS SUMMARY
NATIONAL WEATHER SERVICE MISSOULA MT
1222 AM MDT WED OCT 22 2014

Montana AWOS Reports

LAUREL      |K6S8 220615Z AUTO 28007KT 40SM 08/M02 A2993 RMK AO1 T00831021
ROUNDUP     |KRPX 220615Z AUTO 25017G22KT 40SM 08/00 A2983 RMK AO1 T00830000






000
SXUS55 KMSO 220613
OSOMSO
MONTANA AWOS SUMMARY
NATIONAL WEATHER SERVICE MISSOULA MT
1213 AM MDT WED OCT 22 2014

Montana AWOS Reports

SCOBEY      |K9S2 220555Z AUTO 28008KT 40SM 12/04 A2967 RMK AO1 T01220039
MALTA       |KM75 220555Z AUTO 00000KT 40SM 08/04 A2976 RMK AO1 T00830044






000
SXUS55 KMSO 220603
OSOMSO
MONTANA AWOS SUMMARY
NATIONAL WEATHER SERVICE MISSOULA MT
1203 AM MDT WED OCT 22 2014

Montana AWOS Reports

ROUNDUP     |KRPX 220555Z AUTO 25014G19KT 40SM 09/01 A2983 RMK AO1 T00890006
LAUREL      |K6S8 220555Z AUTO 29006KT 40SM 09/M02 A2993 RMK AO1 T00891021
PLAINS      |KS34 220555Z AUTO 00000KT 25SM 08/04 A3002 RMK AO1 T00780044






000
SXUS55 KMSO 220543
OSOMSO
MONTANA AWOS SUMMARY
NATIONAL WEATHER SERVICE MISSOULA MT
1143 PM MDT TUE OCT 21 2014

Montana AWOS Reports

LAUREL      |K6S8 220535Z AUTO 28009G13KT 40SM 09/M02 A2993 RMK AO1 T00941016
ROUNDUP     |KRPX 220535Z AUTO 26011KT 40SM 08/00 A2984 RMK AO1 T00830000






000
SXUS55 KMSO 220543
OSOMSO
MONTANA AWOS SUMMARY
NATIONAL WEATHER SERVICE MISSOULA MT
1143 PM MDT TUE OCT 21 2014

Montana AWOS Reports

LAUREL      |K6S8 220535Z AUTO 28009G13KT 40SM 09/M02 A2993 RMK AO1 T00941016
ROUNDUP     |KRPX 220535Z AUTO 26011KT 40SM 08/00 A2984 RMK AO1 T00830000






000
SXUS55 KMSO 220523
OSOMSO
MONTANA AWOS SUMMARY
NATIONAL WEATHER SERVICE MISSOULA MT
1122 PM MDT TUE OCT 21 2014

Montana AWOS Reports

LAUREL      |K6S8 220515Z AUTO 27012G18KT 40SM 10/M02 A2992 RMK AO1 T01001016
ROUNDUP     |KRPX 220515Z AUTO 26011G15KT 40SM 08/01 A2983 RMK AO1 T00830006






000
SXUS55 KMSO 220523
OSOMSO
MONTANA AWOS SUMMARY
NATIONAL WEATHER SERVICE MISSOULA MT
1122 PM MDT TUE OCT 21 2014

Montana AWOS Reports

LAUREL      |K6S8 220515Z AUTO 27012G18KT 40SM 10/M02 A2992 RMK AO1 T01001016
ROUNDUP     |KRPX 220515Z AUTO 26011G15KT 40SM 08/01 A2983 RMK AO1 T00830006






000
SXUS55 KMSO 220504
OSOMSO
MONTANA AWOS SUMMARY
NATIONAL WEATHER SERVICE MISSOULA MT
1103 PM MDT TUE OCT 21 2014

Montana AWOS Reports

LAUREL      |K6S8 220455Z AUTO 25016G21KT 40SM 11/M02 A2992 RMK AO1 T01061016
ROUNDUP     |KRPX 220455Z AUTO 26010G14KT 40SM 09/01 A2982 RMK AO1 T00890011
PLAINS      |KS34 220455Z AUTO 00000KT 25SM 08/05 A3001 RMK AO1 T00830050
SCOBEY      |K9S2 220455Z AUTO 26004KT 40SM 12/06 A2965 RMK AO1 T01220056
MALTA       |KM75 220455Z AUTO 24008KT 40SM 11/07 A2973 RMK AO1 T01110072






000
SXUS55 KMSO 220504
OSOMSO
MONTANA AWOS SUMMARY
NATIONAL WEATHER SERVICE MISSOULA MT
1103 PM MDT TUE OCT 21 2014

Montana AWOS Reports

LAUREL      |K6S8 220455Z AUTO 25016G21KT 40SM 11/M02 A2992 RMK AO1 T01061016
ROUNDUP     |KRPX 220455Z AUTO 26010G14KT 40SM 09/01 A2982 RMK AO1 T00890011
PLAINS      |KS34 220455Z AUTO 00000KT 25SM 08/05 A3001 RMK AO1 T00830050
SCOBEY      |K9S2 220455Z AUTO 26004KT 40SM 12/06 A2965 RMK AO1 T01220056
MALTA       |KM75 220455Z AUTO 24008KT 40SM 11/07 A2973 RMK AO1 T01110072






000
SXUS55 KMSO 220443
OSOMSO
MONTANA AWOS SUMMARY
NATIONAL WEATHER SERVICE MISSOULA MT
1043 PM MDT TUE OCT 21 2014

Montana AWOS Reports

LAUREL      |K6S8 220435Z AUTO 25015G25KT 40SM 10/M02 A2991 RMK AO1 T01001016
ROUNDUP     |KRPX 220435Z AUTO 25012G17KT 40SM 09/02 A2982 RMK AO1 T00890017






000
SXUS55 KMSO 220443
OSOMSO
MONTANA AWOS SUMMARY
NATIONAL WEATHER SERVICE MISSOULA MT
1043 PM MDT TUE OCT 21 2014

Montana AWOS Reports

LAUREL      |K6S8 220435Z AUTO 25015G25KT 40SM 10/M02 A2991 RMK AO1 T01001016
ROUNDUP     |KRPX 220435Z AUTO 25012G17KT 40SM 09/02 A2982 RMK AO1 T00890017






000
SXUS55 KMSO 220423
OSOMSO
MONTANA AWOS SUMMARY
NATIONAL WEATHER SERVICE MISSOULA MT
1023 PM MDT TUE OCT 21 2014

Montana AWOS Reports

ROUNDUP     |KRPX 220415Z AUTO 24013G19KT 40SM 09/01 A2981 RMK AO1 T00890011
LAUREL      |K6S8 220415Z AUTO 25014G27KT 40SM 10/M01 A2990 RMK AO1 T01001010






000
SXUS55 KMSO 220423
OSOMSO
MONTANA AWOS SUMMARY
NATIONAL WEATHER SERVICE MISSOULA MT
1023 PM MDT TUE OCT 21 2014

Montana AWOS Reports

ROUNDUP     |KRPX 220415Z AUTO 24013G19KT 40SM 09/01 A2981 RMK AO1 T00890011
LAUREL      |K6S8 220415Z AUTO 25014G27KT 40SM 10/M01 A2990 RMK AO1 T01001010






000
SXUS55 KMSO 220403
OSOMSO
MONTANA AWOS SUMMARY
NATIONAL WEATHER SERVICE MISSOULA MT
1003 PM MDT TUE OCT 21 2014

Montana AWOS Reports

LAUREL      |K6S8 220355Z AUTO 25016G29KT 40SM 10/M01 A2990 RMK AO1 T01001010
ROUNDUP     |KRPX 220355Z AUTO 26011G20KT 40SM 09/02 A2981 RMK AO1 T00890017
PLAINS      |KS34 220355Z AUTO 00000KT 25SM 09/04 A3000 RMK AO1 T00890044
SCOBEY      |K9S2 220355Z AUTO 00000KT 40SM 13/05 A2965 RMK AO1 T01280050
MALTA       |KM75 220355Z AUTO 25010G17KT 40SM 11/07 A2973 RMK AO1 T01110072






000
SXUS55 KMSO 220403
OSOMSO
MONTANA AWOS SUMMARY
NATIONAL WEATHER SERVICE MISSOULA MT
1003 PM MDT TUE OCT 21 2014

Montana AWOS Reports

LAUREL      |K6S8 220355Z AUTO 25016G29KT 40SM 10/M01 A2990 RMK AO1 T01001010
ROUNDUP     |KRPX 220355Z AUTO 26011G20KT 40SM 09/02 A2981 RMK AO1 T00890017
PLAINS      |KS34 220355Z AUTO 00000KT 25SM 09/04 A3000 RMK AO1 T00890044
SCOBEY      |K9S2 220355Z AUTO 00000KT 40SM 13/05 A2965 RMK AO1 T01280050
MALTA       |KM75 220355Z AUTO 25010G17KT 40SM 11/07 A2973 RMK AO1 T01110072






000
SXUS55 KMSO 220343
OSOMSO
MONTANA AWOS SUMMARY
NATIONAL WEATHER SERVICE MISSOULA MT
943 PM MDT TUE OCT 21 2014

Montana AWOS Reports

ROUNDUP     |KRPX 220335Z AUTO 23011G18KT 40SM 08/01 A2980 RMK AO1 T00830006
LAUREL      |K6S8 220335Z AUTO 25020G36KT 40SM 11/M01 A2988 RMK AO1 T01061005






000
SXUS55 KMSO 220343
OSOMSO
MONTANA AWOS SUMMARY
NATIONAL WEATHER SERVICE MISSOULA MT
943 PM MDT TUE OCT 21 2014

Montana AWOS Reports

ROUNDUP     |KRPX 220335Z AUTO 23011G18KT 40SM 08/01 A2980 RMK AO1 T00830006
LAUREL      |K6S8 220335Z AUTO 25020G36KT 40SM 11/M01 A2988 RMK AO1 T01061005






000
SXUS55 KMSO 220323
OSOMSO
MONTANA AWOS SUMMARY
NATIONAL WEATHER SERVICE MISSOULA MT
922 PM MDT TUE OCT 21 2014

Montana AWOS Reports

PLAINS      |KS34 220255Z AUTO 00000KT 40SM 10/04 A3000 RMK AO1 T01000039
LAUREL      |K6S8 220315Z AUTO 25026G35KT 40SM 11/M01 A2987 RMK AO1 T01061010
ROUNDUP     |KRPX 220315Z AUTO 24015G24KT 40SM 09/01 A2979 RMK AO1 T00890006






000
SXUS55 KMSO 220304
OSOMSO
MONTANA AWOS SUMMARY
NATIONAL WEATHER SERVICE MISSOULA MT
903 PM MDT TUE OCT 21 2014

Montana AWOS Reports

LAUREL      |K6S8 220255Z AUTO 25022G35KT 40SM 11/M01 A2987 RMK AO1 T01061010
ROUNDUP     |KRPX 220255Z AUTO 25016G24KT 40SM 09/00 A2979 RMK AO1 T00890000
MALTA       |KM75 220255Z AUTO 25011G18KT 40SM 12/07 A2970 RMK AO1 T01170072
SCOBEY      |K9S2 220255Z AUTO 25010KT 40SM 14/05 A2965 RMK AO1 T01440050






000
SXUS55 KMSO 220243
OSOMSO
MONTANA AWOS SUMMARY
NATIONAL WEATHER SERVICE MISSOULA MT
843 PM MDT TUE OCT 21 2014

Montana AWOS Reports

LAUREL      |K6S8 220235Z AUTO 26022G33KT 40SM 11/M01 A2987 RMK AO1 T01111005
ROUNDUP     |KRPX 220235Z AUTO 26012G20KT 40SM 09/01 A2978 RMK AO1 T00940006






000
SXUS55 KMSO 220243
OSOMSO
MONTANA AWOS SUMMARY
NATIONAL WEATHER SERVICE MISSOULA MT
843 PM MDT TUE OCT 21 2014

Montana AWOS Reports

LAUREL      |K6S8 220235Z AUTO 26022G33KT 40SM 11/M01 A2987 RMK AO1 T01111005
ROUNDUP     |KRPX 220235Z AUTO 26012G20KT 40SM 09/01 A2978 RMK AO1 T00940006






000
SXUS55 KMSO 220223
OSOMSO
MONTANA AWOS SUMMARY
NATIONAL WEATHER SERVICE MISSOULA MT
823 PM MDT TUE OCT 21 2014

Montana AWOS Reports

MALTA       |KM75 220055Z AUTO 28010G20KT 40SM 15/07 A2964 RMK AO1 T01500072
MALTA       |KM75 220155Z AUTO 26014G21KT 40SM 13/07 A2968 RMK AO1 T01280072
LAUREL      |K6S8 220215Z AUTO 26024G33KT 40SM 11/M01 A2986 RMK AO1 T01111010
ROUNDUP     |KRPX 220215Z AUTO 25016G24KT 40SM 10/01 A2975 RMK AO1 T01000006






000
SXUS55 KMSO 220223
OSOMSO
MONTANA AWOS SUMMARY
NATIONAL WEATHER SERVICE MISSOULA MT
823 PM MDT TUE OCT 21 2014

Montana AWOS Reports

MALTA       |KM75 220055Z AUTO 28010G20KT 40SM 15/07 A2964 RMK AO1 T01500072
MALTA       |KM75 220155Z AUTO 26014G21KT 40SM 13/07 A2968 RMK AO1 T01280072
LAUREL      |K6S8 220215Z AUTO 26024G33KT 40SM 11/M01 A2986 RMK AO1 T01111010
ROUNDUP     |KRPX 220215Z AUTO 25016G24KT 40SM 10/01 A2975 RMK AO1 T01000006






000
SXUS55 KMSO 220213
OSOMSO
MONTANA AWOS SUMMARY
NATIONAL WEATHER SERVICE MISSOULA MT
813 PM MDT TUE OCT 21 2014

Montana AWOS Reports

PLAINS      |KS34 220155Z AUTO 00000KT 40SM 11/03 A2999 RMK AO1 T01060033






000
SXUS55 KMSO 220213
OSOMSO
MONTANA AWOS SUMMARY
NATIONAL WEATHER SERVICE MISSOULA MT
813 PM MDT TUE OCT 21 2014

Montana AWOS Reports

PLAINS      |KS34 220155Z AUTO 00000KT 40SM 11/03 A2999 RMK AO1 T01060033






000
SXUS55 KMSO 220204
OSOMSO
MONTANA AWOS SUMMARY
NATIONAL WEATHER SERVICE MISSOULA MT
803 PM MDT TUE OCT 21 2014

Montana AWOS Reports

LAUREL      |K6S8 220155Z AUTO 26025G34KT 40SM 11/M02 A2984 RMK AO1 T01111016
ROUNDUP     |KRPX 220155Z AUTO 25019G25KT 40SM 11/00 A2975 RMK AO1 T01110000






000
SXUS55 KMSO 220204
OSOMSO
MONTANA AWOS SUMMARY
NATIONAL WEATHER SERVICE MISSOULA MT
803 PM MDT TUE OCT 21 2014

Montana AWOS Reports

LAUREL      |K6S8 220155Z AUTO 26025G34KT 40SM 11/M02 A2984 RMK AO1 T01111016
ROUNDUP     |KRPX 220155Z AUTO 25019G25KT 40SM 11/00 A2975 RMK AO1 T01110000






000
SXUS55 KMSO 220143
OSOMSO
MONTANA AWOS SUMMARY
NATIONAL WEATHER SERVICE MISSOULA MT
742 PM MDT TUE OCT 21 2014

Montana AWOS Reports

LAUREL      |K6S8 220135Z AUTO 26026G33KT 40SM 13/M01 A2983 RMK AO1 T01331010
ROUNDUP     |KRPX 220135Z AUTO 26020G25KT 40SM 13/M01 A2975 RMK AO1 T01281005






000
SXUS55 KMSO 220123
OSOMSO
MONTANA AWOS SUMMARY
NATIONAL WEATHER SERVICE MISSOULA MT
723 PM MDT TUE OCT 21 2014

Montana AWOS Reports

LAUREL      |K6S8 220115Z AUTO 24019G26KT 40SM 15/M06 A2981 RMK AO1 T01501060
ROUNDUP     |KRPX 220115Z AUTO 26013G20KT 40SM 13/00 A2973 RMK AO1 T01330000






000
SXUS55 KMSO 220103
OSOMSO
MONTANA AWOS SUMMARY
NATIONAL WEATHER SERVICE MISSOULA MT
703 PM MDT TUE OCT 21 2014

Montana AWOS Reports

LAUREL      |K6S8 220055Z AUTO 23021G29KT 40SM 16/M07 A2980 RMK AO1 T01561066
ROUNDUP     |KRPX 220055Z AUTO 25018G28KT 40SM 14/01 A2971 RMK AO1 T01440011
PLAINS      |KS34 220055Z AUTO 21006KT 40SM 12/03 A2998 RMK AO1 T01170033






000
SXUS55 KMSO 220044
OSOMSO
MONTANA AWOS SUMMARY
NATIONAL WEATHER SERVICE MISSOULA MT
643 PM MDT TUE OCT 21 2014

Montana AWOS Reports

ROUNDUP     |KRPX 220035Z AUTO 24018G33KT 40SM 16/02 A2968 RMK AO1 T01610022
LAUREL      |K6S8 220035Z AUTO 24016G25KT 40SM 16/M07 A2979 RMK AO1 T01611071






000
SXUS55 KMSO 220023
OSOMSO
MONTANA AWOS SUMMARY
NATIONAL WEATHER SERVICE MISSOULA MT
623 PM MDT TUE OCT 21 2014

Montana AWOS Reports

LAUREL      |K6S8 220015Z AUTO 24017G23KT 40SM 17/M07 A2977 RMK AO1 T01721066
ROUNDUP     |KRPX 220015Z AUTO 24027G33KT 40SM 18/M07 A2966 RMK AO1 T01831071






000
SXUS55 KMSO 220004
OSOMSO
MONTANA AWOS SUMMARY
NATIONAL WEATHER SERVICE MISSOULA MT
603 PM MDT TUE OCT 21 2014

Montana AWOS Reports

ROUNDUP     |KRPX 212355Z AUTO 23009G13KT 40SM 19/M04 A2965 RMK AO1 T01891038
LAUREL      |K6S8 212355Z AUTO 23012G20KT 40SM 18/M06 A2975 RMK AO1 T01831060
SCOBEY      |K9S2 212355Z AUTO 24007KT 40SM 19/04 A2961 RMK AO1 T01940044
PLAINS      |KS34 212355Z AUTO 00000KT 40SM 12/04 A2998 RMK AO1 T01170039
MALTA       |KM75 212355Z AUTO 25016G21KT 40SM 14/07 A2964 RMK AO1 T01440072






000
SXUS55 KMSO 212343
OSOMSO
MONTANA AWOS SUMMARY
NATIONAL WEATHER SERVICE MISSOULA MT
543 PM MDT TUE OCT 21 2014

Montana AWOS Reports

ROUNDUP     |KRPX 212335Z AUTO 22011G15KT 40SM 19/M02 A2965 RMK AO1 T01941021
LAUREL      |K6S8 212335Z AUTO 23005KT 40SM 19/M02 A2975 RMK AO1 T01891021






000
SXUS55 KMSO 212324
OSOMSO
MONTANA AWOS SUMMARY
NATIONAL WEATHER SERVICE MISSOULA MT
523 PM MDT TUE OCT 21 2014

Montana AWOS Reports

ROUNDUP     |KRPX 212315Z AUTO 22011G22KT 40SM 20/M03 A2964 RMK AO1 T02001027
LAUREL      |K6S8 212315Z AUTO 24010G18KT 40SM 19/M01 A2974 RMK AO1 T01891010






000
SXUS55 KMSO 212324
OSOMSO
MONTANA AWOS SUMMARY
NATIONAL WEATHER SERVICE MISSOULA MT
523 PM MDT TUE OCT 21 2014

Montana AWOS Reports

ROUNDUP     |KRPX 212315Z AUTO 22011G22KT 40SM 20/M03 A2964 RMK AO1 T02001027
LAUREL      |K6S8 212315Z AUTO 24010G18KT 40SM 19/M01 A2974 RMK AO1 T01891010






000
SXUS55 KMSO 212304
OSOMSO
MONTANA AWOS SUMMARY
NATIONAL WEATHER SERVICE MISSOULA MT
503 PM MDT TUE OCT 21 2014

Montana AWOS Reports

LAUREL      |K6S8 212255Z AUTO 24012G18KT 40SM 19/M01 A2973 RMK AO1 T01941005
ROUNDUP     |KRPX 212255Z AUTO 22016G25KT 40SM 21/M02 A2963 RMK AO1 T02111016
SCOBEY      |K9S2 212255Z AUTO 15007KT 40SM 23/05 A2959 RMK AO1 T02330050
PLAINS      |KS34 212255Z AUTO 22006KT 40SM 13/03 A2996 RMK AO1 T01330028






000
SXUS55 KMSO 212304
OSOMSO
MONTANA AWOS SUMMARY
NATIONAL WEATHER SERVICE MISSOULA MT
503 PM MDT TUE OCT 21 2014

Montana AWOS Reports

LAUREL      |K6S8 212255Z AUTO 24012G18KT 40SM 19/M01 A2973 RMK AO1 T01941005
ROUNDUP     |KRPX 212255Z AUTO 22016G25KT 40SM 21/M02 A2963 RMK AO1 T02111016
SCOBEY      |K9S2 212255Z AUTO 15007KT 40SM 23/05 A2959 RMK AO1 T02330050
PLAINS      |KS34 212255Z AUTO 22006KT 40SM 13/03 A2996 RMK AO1 T01330028






000
SXUS55 KMSO 212243
OSOMSO
MONTANA AWOS SUMMARY
NATIONAL WEATHER SERVICE MISSOULA MT
443 PM MDT TUE OCT 21 2014

Montana AWOS Reports

ROUNDUP     |KRPX 212235Z AUTO 20017G23KT 40SM 21/01 A2963 RMK AO1 T02110011
LAUREL      |K6S8 212235Z AUTO 25013G19KT 40SM 21/M01 A2972 RMK AO1 T02061005






000
SXUS55 KMSO 212243
OSOMSO
MONTANA AWOS SUMMARY
NATIONAL WEATHER SERVICE MISSOULA MT
443 PM MDT TUE OCT 21 2014

Montana AWOS Reports

ROUNDUP     |KRPX 212235Z AUTO 20017G23KT 40SM 21/01 A2963 RMK AO1 T02110011
LAUREL      |K6S8 212235Z AUTO 25013G19KT 40SM 21/M01 A2972 RMK AO1 T02061005






000
SXUS55 KMSO 212223
OSOMSO
MONTANA AWOS SUMMARY
NATIONAL WEATHER SERVICE MISSOULA MT
423 PM MDT TUE OCT 21 2014

Montana AWOS Reports

ROUNDUP     |KRPX 212215Z AUTO 22009KT 40SM 21/04 A2962 RMK AO1 T02060039
LAUREL      |K6S8 212215Z AUTO 25013G17KT 40SM 23/02 A2971 RMK AO1 T02280017






000
SXUS55 KMSO 212204
OSOMSO
MONTANA AWOS SUMMARY
NATIONAL WEATHER SERVICE MISSOULA MT
403 PM MDT TUE OCT 21 2014

Montana AWOS Reports

LAUREL      |K6S8 212155Z AUTO 24011KT 40SM 22/02 A2971 RMK AO1 T02220022
ROUNDUP     |KRPX 212155Z AUTO 22005KT 40SM 21/04 A2963 RMK AO1 T02060039
SCOBEY      |K9S2 212155Z AUTO 14006KT 25SM 24/05 A2959 RMK AO1 T02390050
MALTA       |KM75 212155Z AUTO 00000KT 40SM 18/06 A2958 RMK AO1 T01780056






000
SXUS55 KMSO 212204
OSOMSO
MONTANA AWOS SUMMARY
NATIONAL WEATHER SERVICE MISSOULA MT
403 PM MDT TUE OCT 21 2014

Montana AWOS Reports

LAUREL      |K6S8 212155Z AUTO 24011KT 40SM 22/02 A2971 RMK AO1 T02220022
ROUNDUP     |KRPX 212155Z AUTO 22005KT 40SM 21/04 A2963 RMK AO1 T02060039
SCOBEY      |K9S2 212155Z AUTO 14006KT 25SM 24/05 A2959 RMK AO1 T02390050
MALTA       |KM75 212155Z AUTO 00000KT 40SM 18/06 A2958 RMK AO1 T01780056






000
SXUS55 KMSO 212144
OSOMSO
MONTANA AWOS SUMMARY
NATIONAL WEATHER SERVICE MISSOULA MT
343 PM MDT TUE OCT 21 2014

Montana AWOS Reports

LAUREL      |K6S8 212135Z AUTO 22009G14KT 40SM 23/02 A2970 RMK AO1 T02280022
ROUNDUP     |KRPX 212135Z AUTO 23008KT 40SM 21/04 A2962 RMK AO1 T02110039






000
SXUS55 KMSO 212144
OSOMSO
MONTANA AWOS SUMMARY
NATIONAL WEATHER SERVICE MISSOULA MT
343 PM MDT TUE OCT 21 2014

Montana AWOS Reports

LAUREL      |K6S8 212135Z AUTO 22009G14KT 40SM 23/02 A2970 RMK AO1 T02280022
ROUNDUP     |KRPX 212135Z AUTO 23008KT 40SM 21/04 A2962 RMK AO1 T02110039






000
SXUS55 KMSO 212123
OSOMSO
MONTANA AWOS SUMMARY
NATIONAL WEATHER SERVICE MISSOULA MT
323 PM MDT TUE OCT 21 2014

Montana AWOS Reports

LAUREL      |K6S8 212115Z AUTO 22012G16KT 40SM 23/03 A2970 RMK AO1 T02330028
ROUNDUP     |KRPX 212115Z AUTO 24010KT 40SM 21/03 A2961 RMK AO1 T02110033






000
SXUS55 KMSO 212104
OSOMSO
MONTANA AWOS SUMMARY
NATIONAL WEATHER SERVICE MISSOULA MT
303 PM MDT TUE OCT 21 2014

Montana AWOS Reports

ROUNDUP     |KRPX 212055Z AUTO 22005KT 40SM 22/04 A2959 RMK AO1 T02220039
SCOBEY      |K9S2 212055Z AUTO 16004KT 40SM 23/06 A2960 RMK AO1 T02330056
LAUREL      |K6S8 212055Z AUTO 22008KT 40SM 23/02 A2969 RMK AO1 T02330022
MALTA       |KM75 212055Z AUTO 27014G19KT 40SM 18/04 A2959 RMK AO1 T01780044
PLAINS      |KS34 212055Z AUTO 24005KT 40SM 13/04 A2991 RMK AO1 T01280044






000
SXUS55 KMSO 212053
OSOMSO
MONTANA AWOS SUMMARY
NATIONAL WEATHER SERVICE MISSOULA MT
252 PM MDT TUE OCT 21 2014

Montana AWOS Reports

LAUREL      |K6S8 212035Z AUTO 22009G17KT 25SM 21/01 A2969 RMK AO1 T02110011
ROUNDUP     |KRPX 212035Z AUTO 20006KT 40SM 22/04 A2960 RMK AO1 T02170039






000
SXUS55 KMSO 212024
OSOMSO
MONTANA AWOS SUMMARY
NATIONAL WEATHER SERVICE MISSOULA MT
223 PM MDT TUE OCT 21 2014

Montana AWOS Reports

LAUREL      |K6S8 212015Z AUTO 21010G17KT 40SM 21/01 A2969 RMK AO1 T02110011
ROUNDUP     |KRPX 212015Z AUTO 18009G13KT 40SM 22/03 A2960 RMK AO1 T02170033






000
SXUS55 KMSO 212003
OSOMSO
MONTANA AWOS SUMMARY
NATIONAL WEATHER SERVICE MISSOULA MT
203 PM MDT TUE OCT 21 2014

Montana AWOS Reports

LAUREL      |K6S8 211955Z AUTO 23008KT 40SM 21/01 A2969 RMK AO1 T02110006
ROUNDUP     |KRPX 211955Z AUTO 19010KT 40SM 22/03 A2959 RMK AO1 T02170033
SCOBEY      |K9S2 211955Z AUTO 00000KT 40SM 23/07 A2960 RMK AO1 T02280067
MALTA       |KM75 211955Z AUTO 26018G22KT 10SM 20/07 A2960 RMK AO1 T02000067
PLAINS      |KS34 211955Z AUTO 00000KT 40SM 12/06 A2990 RMK AO1 T01170056






000
SXUS55 KMSO 211944
OSOMSO
MONTANA AWOS SUMMARY
NATIONAL WEATHER SERVICE MISSOULA MT
143 PM MDT TUE OCT 21 2014

Montana AWOS Reports

ROUNDUP     |KRPX 211935Z AUTO 00000KT 40SM 21/03 A2959 RMK AO1 T02060033
LAUREL      |K6S8 211935Z AUTO 20010G17KT 40SM 22/01 A2970 RMK AO1 T02170006






000
SXUS55 KMSO 211923
OSOMSO
MONTANA AWOS SUMMARY
NATIONAL WEATHER SERVICE MISSOULA MT
123 PM MDT TUE OCT 21 2014

Montana AWOS Reports

ROUNDUP     |KRPX 211915Z AUTO 00000KT 25SM 20/03 A2960 RMK AO1 T02000033
LAUREL      |K6S8 211915Z AUTO 21013G19KT 40SM 22/01 A2970 RMK AO1 T02220006






000
SXUS55 KMSO 211913
OSOMSO
MONTANA AWOS SUMMARY
NATIONAL WEATHER SERVICE MISSOULA MT
113 PM MDT TUE OCT 21 2014

Montana AWOS Reports

PLAINS      |KS34 211855Z AUTO 00000KT 15SM 10/08 A2990 RMK AO1 T01000078






000
SXUS55 KMSO 211904
OSOMSO
MONTANA AWOS SUMMARY
NATIONAL WEATHER SERVICE MISSOULA MT
103 PM MDT TUE OCT 21 2014

Montana AWOS Reports

LAUREL      |K6S8 211855Z AUTO 22011G15KT 40SM 23/01 A2971 RMK AO1 T02280011
ROUNDUP     |KRPX 211855Z AUTO 00000KT 40SM 21/03 A2961 RMK AO1 T02060033
SCOBEY      |K9S2 211855Z AUTO 14006KT 40SM 22/07 A2963 RMK AO1 T02170072






000
SXUS55 KMSO 211843
OSOMSO
MONTANA AWOS SUMMARY
NATIONAL WEATHER SERVICE MISSOULA MT
1243 PM MDT TUE OCT 21 2014

Montana AWOS Reports

LAUREL      |K6S8 211835Z AUTO 18005KT 40SM 22/01 A2971 RMK AO1 T02170011
ROUNDUP     |KRPX 211835Z AUTO 17005KT 40SM 21/03 A2962 RMK AO1 T02110028






000
SXUS55 KMSO 211833
OSOMSO
MONTANA AWOS SUMMARY
NATIONAL WEATHER SERVICE MISSOULA MT
1232 PM MDT TUE OCT 21 2014

Montana AWOS Reports

LAUREL      |K6S8 211815Z AUTO 22008KT 40SM 21/01 A2972 RMK AO1 T02110006






000
SXUS55 KMSO 211823
OSOMSO
MONTANA AWOS SUMMARY
NATIONAL WEATHER SERVICE MISSOULA MT
1222 PM MDT TUE OCT 21 2014

Montana AWOS Reports

ROUNDUP     |KRPX 211815Z AUTO 19004KT 40SM 21/04 A2963 RMK AO1 T02060039






000
SXUS55 KMSO 211803
OSOMSO
MONTANA AWOS SUMMARY
NATIONAL WEATHER SERVICE MISSOULA MT
1202 PM MDT TUE OCT 21 2014

Montana AWOS Reports

LAUREL      |K6S8 211755Z AUTO 23010G16KT 40SM 21/01 A2972 RMK AO1 T02060006
ROUNDUP     |KRPX 211755Z AUTO 20007KT 40SM 19/02 A2964 RMK AO1 T01890022
SCOBEY      |K9S2 211755Z AUTO 00000KT 40SM 18/07 A2965 RMK AO1 T01830067
MALTA       |KM75 211755Z AUTO 00000KT 40SM 17/08 A2959 RMK AO1 T01720083
PLAINS      |KS34 211755Z AUTO 00000KT 25SM 10/08 A2988 RMK AO1 T01000083






000
SXUS55 KMSO 211743
OSOMSO
MONTANA AWOS SUMMARY
NATIONAL WEATHER SERVICE MISSOULA MT
1143 AM MDT TUE OCT 21 2014

Montana AWOS Reports

LAUREL      |K6S8 211735Z AUTO 22010G14KT 40SM 20/00 A2972 RMK AO1 T02000000
ROUNDUP     |KRPX 211735Z AUTO 18005KT 40SM 18/03 A2964 RMK AO1 T01830028






000
SXUS55 KMSO 211733
OSOMSO
MONTANA AWOS SUMMARY
NATIONAL WEATHER SERVICE MISSOULA MT
1133 AM MDT TUE OCT 21 2014

Montana AWOS Reports

MALTA       |KM75 211655Z AUTO 07004KT 40SM 13/06 A2960 RMK AO1 T01330061






000
SXUS55 KMSO 211723
OSOMSO
MONTANA AWOS SUMMARY
NATIONAL WEATHER SERVICE MISSOULA MT
1123 AM MDT TUE OCT 21 2014

Montana AWOS Reports

LAUREL      |K6S8 211715Z AUTO 24008KT 40SM 18/01 A2972 RMK AO1 T01780006
ROUNDUP     |KRPX 211715Z AUTO VRB04KT 40SM 17/02 A2964 RMK AO1 T01720017






000
SXUS55 KMSO 211713
OSOMSO
MONTANA AWOS SUMMARY
NATIONAL WEATHER SERVICE MISSOULA MT
1113 AM MDT TUE OCT 21 2014

Montana AWOS Reports

MALTA       |KM75 211555Z AUTO 11004KT 40SM 12/06 A2962 RMK AO1 T01220061






000
SXUS55 KMSO 211703
OSOMSO
MONTANA AWOS SUMMARY
NATIONAL WEATHER SERVICE MISSOULA MT
1103 AM MDT TUE OCT 21 2014

Montana AWOS Reports

PLAINS      |KS34 211655Z AUTO 00000KT 25SM 09/08 A2987 RMK AO1 T00940078
LAUREL      |K6S8 211655Z AUTO 23004KT 40SM 16/01 A2973 RMK AO1 T01610006
ROUNDUP     |KRPX 211655Z AUTO 00000KT 40SM 16/03 A2965 RMK AO1 T01560028
SCOBEY      |K9S2 211655Z AUTO 00000KT 40SM 14/06 A2966 RMK AO1 T01440061






000
SXUS55 KMSO 211653
OSOMSO
MONTANA AWOS SUMMARY
NATIONAL WEATHER SERVICE MISSOULA MT
1053 AM MDT TUE OCT 21 2014

Montana AWOS Reports

LAUREL      |K6S8 211635Z AUTO 00000KT 25SM 16/00 A2973 RMK AO1 T01560000
ROUNDUP     |KRPX 211635Z AUTO 20006KT 40SM 14/01 A2965 RMK AO1 T01390011






000
SXUS55 KMSO 211653
OSOMSO
MONTANA AWOS SUMMARY
NATIONAL WEATHER SERVICE MISSOULA MT
1053 AM MDT TUE OCT 21 2014

Montana AWOS Reports

LAUREL      |K6S8 211635Z AUTO 00000KT 25SM 16/00 A2973 RMK AO1 T01560000
ROUNDUP     |KRPX 211635Z AUTO 20006KT 40SM 14/01 A2965 RMK AO1 T01390011






000
SXUS55 KMSO 211623
OSOMSO
MONTANA AWOS SUMMARY
NATIONAL WEATHER SERVICE MISSOULA MT
1023 AM MDT TUE OCT 21 2014

Montana AWOS Reports

ROUNDUP     |KRPX 211615Z AUTO 20007KT 40SM 12/01 A2965 RMK AO1 T01220006
LAUREL      |K6S8 211615Z AUTO 00000KT 25SM 16/M01 A2974 RMK AO1 T01561005






000
SXUS55 KMSO 211603
OSOMSO
MONTANA AWOS SUMMARY
NATIONAL WEATHER SERVICE MISSOULA MT
1003 AM MDT TUE OCT 21 2014

Montana AWOS Reports

ROUNDUP     |KRPX 211555Z AUTO 20006KT 40SM 12/01 A2965 RMK AO1 T01170006
LAUREL      |K6S8 211555Z AUTO 00000KT 25SM 16/M01 A2974 RMK AO1 T01561005
SCOBEY      |K9S2 211555Z AUTO 00000KT 40SM 10/04 A2968 RMK AO1 T01000039
PLAINS      |KS34 211555Z AUTO 00000KT 4SM 09/07 A2987 RMK AO1 T00940072






000
SXUS55 KMSO 211603
OSOMSO
MONTANA AWOS SUMMARY
NATIONAL WEATHER SERVICE MISSOULA MT
1003 AM MDT TUE OCT 21 2014

Montana AWOS Reports

ROUNDUP     |KRPX 211555Z AUTO 20006KT 40SM 12/01 A2965 RMK AO1 T01170006
LAUREL      |K6S8 211555Z AUTO 00000KT 25SM 16/M01 A2974 RMK AO1 T01561005
SCOBEY      |K9S2 211555Z AUTO 00000KT 40SM 10/04 A2968 RMK AO1 T01000039
PLAINS      |KS34 211555Z AUTO 00000KT 4SM 09/07 A2987 RMK AO1 T00940072






000
SXUS55 KMSO 211544
OSOMSO
MONTANA AWOS SUMMARY
NATIONAL WEATHER SERVICE MISSOULA MT
943 AM MDT TUE OCT 21 2014

Montana AWOS Reports

ROUNDUP     |KRPX 211535Z AUTO 00000KT 40SM 10/01 A2966 RMK AO1 T01000006
LAUREL      |K6S8 211535Z AUTO 00000KT 40SM 14/M01 A2974 RMK AO1 T01441010
MALTA       |KM75 211455Z AUTO 00000KT 40SM 06/03 A2963 RMK AO1 T00560033






000
SXUS55 KMSO 211544
OSOMSO
MONTANA AWOS SUMMARY
NATIONAL WEATHER SERVICE MISSOULA MT
943 AM MDT TUE OCT 21 2014

Montana AWOS Reports

ROUNDUP     |KRPX 211535Z AUTO 00000KT 40SM 10/01 A2966 RMK AO1 T01000006
LAUREL      |K6S8 211535Z AUTO 00000KT 40SM 14/M01 A2974 RMK AO1 T01441010
MALTA       |KM75 211455Z AUTO 00000KT 40SM 06/03 A2963 RMK AO1 T00560033






000
SXUS55 KMSO 211524
OSOMSO
MONTANA AWOS SUMMARY
NATIONAL WEATHER SERVICE MISSOULA MT
923 AM MDT TUE OCT 21 2014

Montana AWOS Reports

LAUREL      |K6S8 211515Z AUTO 20006KT 40SM 13/M02 A2974 RMK AO1 T01331021
ROUNDUP     |KRPX 211515Z AUTO 21008KT 40SM 07/M01 A2966 RMK AO1 T00721005






000
SXUS55 KMSO 211524
OSOMSO
MONTANA AWOS SUMMARY
NATIONAL WEATHER SERVICE MISSOULA MT
923 AM MDT TUE OCT 21 2014

Montana AWOS Reports

LAUREL      |K6S8 211515Z AUTO 20006KT 40SM 13/M02 A2974 RMK AO1 T01331021
ROUNDUP     |KRPX 211515Z AUTO 21008KT 40SM 07/M01 A2966 RMK AO1 T00721005






000
SXUS55 KMSO 211504
OSOMSO
MONTANA AWOS SUMMARY
NATIONAL WEATHER SERVICE MISSOULA MT
903 AM MDT TUE OCT 21 2014

Montana AWOS Reports

LAUREL      |K6S8 211455Z AUTO 20004KT 40SM 13/M02 A2975 RMK AO1 T01281021
ROUNDUP     |KRPX 211455Z AUTO 20008KT 40SM 06/M01 A2966 RMK AO1 T00561010
SCOBEY      |K9S2 211455Z AUTO 00000KT 40SM 03/01 A2970 RMK AO1 T00330006
MALTA       |KM75 211355Z AUTO 00000KT 40SM 04/02 A2964 RMK AO1 T00390017
PLAINS      |KS34 211455Z AUTO 00000KT 5SM 09/07 A2987 RMK AO1 T00890067






000
SXUS55 KMSO 211443
OSOMSO
MONTANA AWOS SUMMARY
NATIONAL WEATHER SERVICE MISSOULA MT
843 AM MDT TUE OCT 21 2014

Montana AWOS Reports

ROUNDUP     |KRPX 211435Z AUTO 20005KT 40SM 05/M02 A2967 RMK AO1 T00501016
LAUREL      |K6S8 211435Z AUTO 00000KT 40SM 11/M02 A2975 RMK AO1 T01111021






000
SXUS55 KMSO 211424
OSOMSO
MONTANA AWOS SUMMARY
NATIONAL WEATHER SERVICE MISSOULA MT
823 AM MDT TUE OCT 21 2014

Montana AWOS Reports

LAUREL      |K6S8 211415Z AUTO 00000KT 40SM 09/M02 A2975 RMK AO1 T00891021
ROUNDUP     |KRPX 211415Z AUTO 21009KT 40SM 05/M02 A2967 RMK AO1 T00501016






000
SXUS55 KMSO 211403
OSOMSO
MONTANA AWOS SUMMARY
NATIONAL WEATHER SERVICE MISSOULA MT
803 AM MDT TUE OCT 21 2014

Montana AWOS Reports

LAUREL      |K6S8 211355Z AUTO 00000KT 40SM 08/M03 A2975 RMK AO1 T00781027
ROUNDUP     |KRPX 211355Z AUTO 21008KT 40SM 06/M02 A2967 RMK AO1 T00561016
SCOBEY      |K9S2 211355Z AUTO 00000KT 25SM 00/M03 A2971 RMK AO1 T00001032
PLAINS      |KS34 211355Z AUTO 00000KT 7SM 09/07 A2984 RMK AO1 T00940072






000
SXUS55 KMSO 211343
OSOMSO
MONTANA AWOS SUMMARY
NATIONAL WEATHER SERVICE MISSOULA MT
743 AM MDT TUE OCT 21 2014

Montana AWOS Reports

ROUNDUP     |KRPX 211335Z AUTO 21009KT 40SM 05/M02 A2967 RMK AO1 T00501021
LAUREL      |K6S8 211335Z AUTO 00000KT 40SM 08/M03 A2975 RMK AO1 T00831027






000
SXUS55 KMSO 211323
OSOMSO
MONTANA AWOS SUMMARY
NATIONAL WEATHER SERVICE MISSOULA MT
723 AM MDT TUE OCT 21 2014

Montana AWOS Reports

LAUREL      |K6S8 211315Z AUTO 00000KT 40SM 08/M03 A2975 RMK AO1 T00831027
ROUNDUP     |KRPX 211315Z AUTO 00000KT 40SM 06/M02 A2966 RMK AO1 T00561016






000
SXUS55 KMSO 211314
OSOMSO
MONTANA AWOS SUMMARY
NATIONAL WEATHER SERVICE MISSOULA MT
713 AM MDT TUE OCT 21 2014

Montana AWOS Reports

SCOBEY      |K9S2 211255Z AUTO 00000KT 40SM 01/M03 A2972 RMK AO1 T00061027
PLAINS      |KS34 211255Z AUTO 00000KT 3 1/2SM 09/06 A2982 RMK AO1 T00890061
MALTA       |KM75 211255Z AUTO 00000KT 40SM 03/01 A2964 RMK AO1 T00330006






000
SXUS55 KMSO 211303
OSOMSO
MONTANA AWOS SUMMARY
NATIONAL WEATHER SERVICE MISSOULA MT
703 AM MDT TUE OCT 21 2014

Montana AWOS Reports

LAUREL      |K6S8 211255Z AUTO 22004KT 40SM 09/M03 A2975 RMK AO1 T00891027
ROUNDUP     |KRPX 211255Z AUTO 22007KT 40SM 06/M02 A2967 RMK AO1 T00561016






000
SXUS55 KMSO 211244
OSOMSO
MONTANA AWOS SUMMARY
NATIONAL WEATHER SERVICE MISSOULA MT
643 AM MDT TUE OCT 21 2014

Montana AWOS Reports

LAUREL      |K6S8 211235Z AUTO 00000KT 40SM 08/M03 A2975 RMK AO1 T00781027
ROUNDUP     |KRPX 211235Z AUTO 22005KT 40SM 06/M02 A2967 RMK AO1 T00561016






000
SXUS55 KMSO 211223
OSOMSO
MONTANA AWOS SUMMARY
NATIONAL WEATHER SERVICE MISSOULA MT
623 AM MDT TUE OCT 21 2014

Montana AWOS Reports

LAUREL      |K6S8 211215Z AUTO 00000KT 40SM 09/M03 A2976 RMK AO1 T00891027
ROUNDUP     |KRPX 211215Z AUTO 00000KT 40SM 06/M02 A2968 RMK AO1 T00561016






000
SXUS55 KMSO 211213
OSOMSO
MONTANA AWOS SUMMARY
NATIONAL WEATHER SERVICE MISSOULA MT
613 AM MDT TUE OCT 21 2014

Montana AWOS Reports

MALTA       |KM75 211155Z AUTO 00000KT 40SM 04/01 A2964 RMK AO1 T00390011






000
SXUS55 KMSO 211203
OSOMSO
MONTANA AWOS SUMMARY
NATIONAL WEATHER SERVICE MISSOULA MT
603 AM MDT TUE OCT 21 2014

Montana AWOS Reports

ROUNDUP     |KRPX 211155Z AUTO 00000KT 40SM 05/M02 A2968 RMK AO1 T00501021
PLAINS      |KS34 211155Z AUTO 00000KT 5SM 09/05 A2980 RMK AO1 T00890050
LAUREL      |K6S8 211155Z AUTO 00000KT 40SM 08/M03 A2977 RMK AO1 T00831032
SCOBEY      |K9S2 211155Z AUTO 00000KT 25SM 02/M02 A2973 RMK AO1 T00171016






000
SXUS55 KMSO 211203
OSOMSO
MONTANA AWOS SUMMARY
NATIONAL WEATHER SERVICE MISSOULA MT
603 AM MDT TUE OCT 21 2014

Montana AWOS Reports

ROUNDUP     |KRPX 211155Z AUTO 00000KT 40SM 05/M02 A2968 RMK AO1 T00501021
PLAINS      |KS34 211155Z AUTO 00000KT 5SM 09/05 A2980 RMK AO1 T00890050
LAUREL      |K6S8 211155Z AUTO 00000KT 40SM 08/M03 A2977 RMK AO1 T00831032
SCOBEY      |K9S2 211155Z AUTO 00000KT 25SM 02/M02 A2973 RMK AO1 T00171016






000
SXUS55 KMSO 211143
OSOMSO
MONTANA AWOS SUMMARY
NATIONAL WEATHER SERVICE MISSOULA MT
543 AM MDT TUE OCT 21 2014

Montana AWOS Reports

ROUNDUP     |KRPX 211135Z AUTO 00000KT 40SM 05/M02 A2969 RMK AO1 T00501016
LAUREL      |K6S8 211135Z AUTO 00000KT 40SM 09/M03 A2976 RMK AO1 T00891027






000
SXUS55 KMSO 211143
OSOMSO
MONTANA AWOS SUMMARY
NATIONAL WEATHER SERVICE MISSOULA MT
543 AM MDT TUE OCT 21 2014

Montana AWOS Reports

ROUNDUP     |KRPX 211135Z AUTO 00000KT 40SM 05/M02 A2969 RMK AO1 T00501016
LAUREL      |K6S8 211135Z AUTO 00000KT 40SM 09/M03 A2976 RMK AO1 T00891027






000
SXUS55 KMSO 211123
OSOMSO
MONTANA AWOS SUMMARY
NATIONAL WEATHER SERVICE MISSOULA MT
523 AM MDT TUE OCT 21 2014

Montana AWOS Reports

ROUNDUP     |KRPX 211115Z AUTO 23006KT 40SM 06/M02 A2968 RMK AO1 T00611016
LAUREL      |K6S8 211115Z AUTO 00000KT 40SM 09/M03 A2976 RMK AO1 T00891027






000
SXUS55 KMSO 211123
OSOMSO
MONTANA AWOS SUMMARY
NATIONAL WEATHER SERVICE MISSOULA MT
523 AM MDT TUE OCT 21 2014

Montana AWOS Reports

ROUNDUP     |KRPX 211115Z AUTO 23006KT 40SM 06/M02 A2968 RMK AO1 T00611016
LAUREL      |K6S8 211115Z AUTO 00000KT 40SM 09/M03 A2976 RMK AO1 T00891027






000
SXUS55 KMSO 211104
OSOMSO
MONTANA AWOS SUMMARY
NATIONAL WEATHER SERVICE MISSOULA MT
503 AM MDT TUE OCT 21 2014

Montana AWOS Reports

LAUREL      |K6S8 211055Z AUTO 00000KT 40SM 08/M03 A2976 RMK AO1 T00831027
ROUNDUP     |KRPX 211055Z AUTO 23005KT 40SM 08/M02 A2968 RMK AO1 T00781016
SCOBEY      |K9S2 211055Z AUTO 00000KT 25SM 02/M02 A2973 RMK AO1 T00221016
MALTA       |KM75 211055Z AUTO 00000KT 40SM 04/02 A2964 RMK AO1 T00440017
PLAINS      |KS34 211055Z AUTO 00000KT 25SM 07/03 A2980 RMK AO1 T00720033






000
SXUS55 KMSO 211104
OSOMSO
MONTANA AWOS SUMMARY
NATIONAL WEATHER SERVICE MISSOULA MT
503 AM MDT TUE OCT 21 2014

Montana AWOS Reports

LAUREL      |K6S8 211055Z AUTO 00000KT 40SM 08/M03 A2976 RMK AO1 T00831027
ROUNDUP     |KRPX 211055Z AUTO 23005KT 40SM 08/M02 A2968 RMK AO1 T00781016
SCOBEY      |K9S2 211055Z AUTO 00000KT 25SM 02/M02 A2973 RMK AO1 T00221016
MALTA       |KM75 211055Z AUTO 00000KT 40SM 04/02 A2964 RMK AO1 T00440017
PLAINS      |KS34 211055Z AUTO 00000KT 25SM 07/03 A2980 RMK AO1 T00720033






000
SXUS55 KMSO 211043
OSOMSO
MONTANA AWOS SUMMARY
NATIONAL WEATHER SERVICE MISSOULA MT
443 AM MDT TUE OCT 21 2014

Montana AWOS Reports

LAUREL      |K6S8 211035Z AUTO 00000KT 40SM 09/M03 A2977 RMK AO1 T00891027
ROUNDUP     |KRPX 211035Z AUTO 24005KT 40SM 08/M02 A2969 RMK AO1 T00831016






000
SXUS55 KMSO 211043
OSOMSO
MONTANA AWOS SUMMARY
NATIONAL WEATHER SERVICE MISSOULA MT
443 AM MDT TUE OCT 21 2014

Montana AWOS Reports

LAUREL      |K6S8 211035Z AUTO 00000KT 40SM 09/M03 A2977 RMK AO1 T00891027
ROUNDUP     |KRPX 211035Z AUTO 24005KT 40SM 08/M02 A2969 RMK AO1 T00831016






000
SXUS55 KMSO 211023
OSOMSO
MONTANA AWOS SUMMARY
NATIONAL WEATHER SERVICE MISSOULA MT
423 AM MDT TUE OCT 21 2014

Montana AWOS Reports

LAUREL      |K6S8 211015Z AUTO 00000KT 40SM 09/M02 A2977 RMK AO1 T00941021
ROUNDUP     |KRPX 211015Z AUTO 00000KT 40SM 09/M02 A2969 RMK AO1 T00891021






000
SXUS55 KMSO 211023
OSOMSO
MONTANA AWOS SUMMARY
NATIONAL WEATHER SERVICE MISSOULA MT
423 AM MDT TUE OCT 21 2014

Montana AWOS Reports

LAUREL      |K6S8 211015Z AUTO 00000KT 40SM 09/M02 A2977 RMK AO1 T00941021
ROUNDUP     |KRPX 211015Z AUTO 00000KT 40SM 09/M02 A2969 RMK AO1 T00891021






000
SXUS55 KMSO 211003
OSOMSO
MONTANA AWOS SUMMARY
NATIONAL WEATHER SERVICE MISSOULA MT
403 AM MDT TUE OCT 21 2014

Montana AWOS Reports

SCOBEY      |K9S2 210955Z AUTO 00000KT 40SM 06/01 A2973 RMK AO1 T00610011
PLAINS      |KS34 210955Z AUTO 00000KT 15SM 05/01 A2981 RMK AO1 T00500011
LAUREL      |K6S8 210955Z AUTO 00000KT 40SM 09/M02 A2978 RMK AO1 T00941021
ROUNDUP     |KRPX 210955Z AUTO 00000KT 40SM 09/M02 A2969 RMK AO1 T00891021
MALTA       |KM75 210955Z AUTO 00000KT 40SM 05/02 A2965 RMK AO1 T00500022






000
SXUS55 KMSO 211003
OSOMSO
MONTANA AWOS SUMMARY
NATIONAL WEATHER SERVICE MISSOULA MT
403 AM MDT TUE OCT 21 2014

Montana AWOS Reports

SCOBEY      |K9S2 210955Z AUTO 00000KT 40SM 06/01 A2973 RMK AO1 T00610011
PLAINS      |KS34 210955Z AUTO 00000KT 15SM 05/01 A2981 RMK AO1 T00500011
LAUREL      |K6S8 210955Z AUTO 00000KT 40SM 09/M02 A2978 RMK AO1 T00941021
ROUNDUP     |KRPX 210955Z AUTO 00000KT 40SM 09/M02 A2969 RMK AO1 T00891021
MALTA       |KM75 210955Z AUTO 00000KT 40SM 05/02 A2965 RMK AO1 T00500022






000
SXUS55 KMSO 210943
OSOMSO
MONTANA AWOS SUMMARY
NATIONAL WEATHER SERVICE MISSOULA MT
343 AM MDT TUE OCT 21 2014

Montana AWOS Reports

ROUNDUP     |KRPX 210935Z AUTO 24005KT 40SM 09/M02 A2969 RMK AO1 T00891021
LAUREL      |K6S8 210935Z AUTO 00000KT 40SM 09/M03 A2978 RMK AO1 T00891027






000
SXUS55 KMSO 210933
OSOMSO
MONTANA AWOS SUMMARY
NATIONAL WEATHER SERVICE MISSOULA MT
333 AM MDT TUE OCT 21 2014

Montana AWOS Reports

LAUREL      |K6S8 210915Z AUTO 00000KT 40SM 11/M03 A2978 RMK AO1 T01061027






000
SXUS55 KMSO 210923
OSOMSO
MONTANA AWOS SUMMARY
NATIONAL WEATHER SERVICE MISSOULA MT
323 AM MDT TUE OCT 21 2014

Montana AWOS Reports

ROUNDUP     |KRPX 210915Z AUTO 24006KT 40SM 09/M01 A2970 RMK AO1 T00891010






000
SXUS55 KMSO 210913
OSOMSO
MONTANA AWOS SUMMARY
NATIONAL WEATHER SERVICE MISSOULA MT
313 AM MDT TUE OCT 21 2014

Montana AWOS Reports

MALTA       |KM75 210855Z AUTO 00000KT 40SM 06/03 A2967 RMK AO1 T00560028






000
SXUS55 KMSO 210903
OSOMSO
MONTANA AWOS SUMMARY
NATIONAL WEATHER SERVICE MISSOULA MT
303 AM MDT TUE OCT 21 2014

Montana AWOS Reports

LAUREL      |K6S8 210855Z AUTO 00000KT 40SM 11/M03 A2979 RMK AO1 T01111027
ROUNDUP     |KRPX 210855Z AUTO 24005KT 40SM 08/M01 A2970 RMK AO1 T00831010
SCOBEY      |K9S2 210855Z AUTO 00000KT 40SM 07/01 A2974 RMK AO1 T00720011
PLAINS      |KS34 210855Z AUTO 00000KT 15SM 06/01 A2980 RMK AO1 T00560011






000
SXUS55 KMSO 210843
OSOMSO
MONTANA AWOS SUMMARY
NATIONAL WEATHER SERVICE MISSOULA MT
243 AM MDT TUE OCT 21 2014

Montana AWOS Reports

LAUREL      |K6S8 210835Z AUTO 00000KT 40SM 10/M03 A2979 RMK AO1 T01001032
ROUNDUP     |KRPX 210835Z AUTO 24005KT 40SM 09/M02 A2971 RMK AO1 T00941016






000
SXUS55 KMSO 210824
OSOMSO
MONTANA AWOS SUMMARY
NATIONAL WEATHER SERVICE MISSOULA MT
223 AM MDT TUE OCT 21 2014

Montana AWOS Reports

LAUREL      |K6S8 210815Z AUTO 00000KT 40SM 10/M03 A2979 RMK AO1 T01001032
ROUNDUP     |KRPX 210815Z AUTO 25006KT 40SM 09/M01 A2971 RMK AO1 T00891010






000
SXUS55 KMSO 210813
OSOMSO
MONTANA AWOS SUMMARY
NATIONAL WEATHER SERVICE MISSOULA MT
213 AM MDT TUE OCT 21 2014

Montana AWOS Reports

MALTA       |KM75 210755Z AUTO 00000KT 40SM 06/03 A2967 RMK AO1 T00610028






000
SXUS55 KMSO 210803
OSOMSO
MONTANA AWOS SUMMARY
NATIONAL WEATHER SERVICE MISSOULA MT
203 AM MDT TUE OCT 21 2014

Montana AWOS Reports

ROUNDUP     |KRPX 210755Z AUTO 25004KT 40SM 08/M02 A2971 RMK AO1 T00831016
SCOBEY      |K9S2 210755Z AUTO 00000KT 40SM 08/02 A2975 RMK AO1 T00780017
PLAINS      |KS34 210755Z AUTO 00000KT 15SM 05/01 A2979 RMK AO1 T00500006
LAUREL      |K6S8 210755Z AUTO 00000KT 40SM 11/M03 A2979 RMK AO1 T01061027






000
SXUS55 KMSO 210743
OSOMSO
MONTANA AWOS SUMMARY
NATIONAL WEATHER SERVICE MISSOULA MT
142 AM MDT TUE OCT 21 2014

Montana AWOS Reports

LAUREL      |K6S8 210735Z AUTO 00000KT 40SM 11/M03 A2980 RMK AO1 T01061027
ROUNDUP     |KRPX 210735Z AUTO 25006KT 40SM 09/M01 A2971 RMK AO1 T00891010






000
SXUS55 KMSO 210723
OSOMSO
MONTANA AWOS SUMMARY
NATIONAL WEATHER SERVICE MISSOULA MT
123 AM MDT TUE OCT 21 2014

Montana AWOS Reports

LAUREL      |K6S8 210715Z AUTO 00000KT 40SM 11/M04 A2980 RMK AO1 T01061038
ROUNDUP     |KRPX 210715Z AUTO 25005KT 40SM 09/M01 A2972 RMK AO1 T00941010






000
SXUS55 KMSO 210703
OSOMSO
MONTANA AWOS SUMMARY
NATIONAL WEATHER SERVICE MISSOULA MT
103 AM MDT TUE OCT 21 2014

Montana AWOS Reports

LAUREL      |K6S8 210655Z AUTO 00000KT 40SM 12/M03 A2980 RMK AO1 T01221032
ROUNDUP     |KRPX 210655Z AUTO 00000KT 40SM 09/M01 A2972 RMK AO1 T00941010
SCOBEY      |K9S2 210655Z AUTO 00000KT 40SM 09/02 A2975 RMK AO1 T00890017
MALTA       |KM75 210655Z AUTO 00000KT 40SM 06/03 A2968 RMK AO1 T00610028
PLAINS      |KS34 210655Z AUTO 00000KT 15SM 05/01 A2978 RMK AO1 T00500011






000
SXUS55 KMSO 210653
OSOMSO
MONTANA AWOS SUMMARY
NATIONAL WEATHER SERVICE MISSOULA MT
1252 AM MDT TUE OCT 21 2014

Montana AWOS Reports

LAUREL      |K6S8 210635Z AUTO 00000KT 40SM 13/M03 A2980 RMK AO1 T01281032
ROUNDUP     |KRPX 210635Z AUTO 25006KT 40SM 10/M01 A2972 RMK AO1 T01001010






000
SXUS55 KMSO 210623
OSOMSO
MONTANA AWOS SUMMARY
NATIONAL WEATHER SERVICE MISSOULA MT
1223 AM MDT TUE OCT 21 2014

Montana AWOS Reports

LAUREL      |K6S8 210615Z AUTO 00000KT 40SM 13/M03 A2981 RMK AO1 T01281032
ROUNDUP     |KRPX 210615Z AUTO 00000KT 40SM 11/M01 A2972 RMK AO1 T01111010






000
SXUS55 KMSO 210614
OSOMSO
MONTANA AWOS SUMMARY
NATIONAL WEATHER SERVICE MISSOULA MT
1213 AM MDT TUE OCT 21 2014

Montana AWOS Reports

SCOBEY      |K9S2 210555Z AUTO 00000KT 40SM 10/02 A2976 RMK AO1 T01000022
MALTA       |KM75 210555Z AUTO 00000KT 40SM 06/03 A2969 RMK AO1 T00610028






000
SXUS55 KMSO 210603
OSOMSO
MONTANA AWOS SUMMARY
NATIONAL WEATHER SERVICE MISSOULA MT
1203 AM MDT TUE OCT 21 2014

Montana AWOS Reports

ROUNDUP     |KRPX 210555Z AUTO 00000KT 40SM 10/M01 A2972 RMK AO1 T01001010






000
SXUS55 KMSO 210544
OSOMSO
MONTANA AWOS SUMMARY
NATIONAL WEATHER SERVICE MISSOULA MT
1143 PM MDT MON OCT 20 2014

Montana AWOS Reports

ROUNDUP     |KRPX 210535Z AUTO 25004KT 40SM 11/M01 A2973 RMK AO1 T01111005
LAUREL      |K6S8 210535Z AUTO 00000KT 40SM 14/M03 A2981 RMK AO1 T01391032






000
SXUS55 KMSO 210523
OSOMSO
MONTANA AWOS SUMMARY
NATIONAL WEATHER SERVICE MISSOULA MT
1123 PM MDT MON OCT 20 2014

Montana AWOS Reports

LAUREL      |K6S8 210515Z AUTO 00000KT 40SM 14/M03 A2981 RMK AO1 T01441032
ROUNDUP     |KRPX 210515Z AUTO 25006KT 40SM 11/M01 A2973 RMK AO1 T01061005






000
SXUS55 KMSO 210513
OSOMSO
MONTANA AWOS SUMMARY
NATIONAL WEATHER SERVICE MISSOULA MT
1113 PM MDT MON OCT 20 2014

Montana AWOS Reports

SCOBEY      |K9S2 210455Z AUTO 00000KT 40SM 11/02 A2976 RMK AO1 T01060022
PLAINS      |KS34 210455Z AUTO 00000KT 15SM 07/01 A2974 RMK AO1 T00670011
MALTA       |KM75 210455Z AUTO 00000KT 40SM 07/03 A2970 RMK AO1 T00670028






000
SXUS55 KMSO 210504
OSOMSO
MONTANA AWOS SUMMARY
NATIONAL WEATHER SERVICE MISSOULA MT
1103 PM MDT MON OCT 20 2014

Montana AWOS Reports

LAUREL      |K6S8 210455Z AUTO 22004KT 40SM 16/M03 A2982 RMK AO1 T01561032
ROUNDUP     |KRPX 210455Z AUTO 00000KT 40SM 12/M01 A2973 RMK AO1 T01171005






000
SXUS55 KMSO 210443
OSOMSO
MONTANA AWOS SUMMARY
NATIONAL WEATHER SERVICE MISSOULA MT
1043 PM MDT MON OCT 20 2014

Montana AWOS Reports

ROUNDUP     |KRPX 210435Z AUTO 00000KT 40SM 17/00 A2974 RMK AO1 T01670000
LAUREL      |K6S8 210435Z AUTO 00000KT 40SM 13/M03 A2982 RMK AO1 T01331032






000
SXUS55 KMSO 210423
OSOMSO
MONTANA AWOS SUMMARY
NATIONAL WEATHER SERVICE MISSOULA MT
1023 PM MDT MON OCT 20 2014

Montana AWOS Reports

ROUNDUP     |KRPX 210415Z AUTO 20005KT 40SM 16/M01 A2974 RMK AO1 T01561005
LAUREL      |K6S8 210415Z AUTO 00000KT 40SM 14/M03 A2982 RMK AO1 T01391032






000
SXUS55 KMSO 210413
OSOMSO
MONTANA AWOS SUMMARY
NATIONAL WEATHER SERVICE MISSOULA MT
1013 PM MDT MON OCT 20 2014

Montana AWOS Reports

SCOBEY      |K9S2 210355Z AUTO 00000KT 40SM 11/02 A2977 RMK AO1 T01060022
MALTA       |KM75 210355Z AUTO 00000KT 40SM 07/03 A2970 RMK AO1 T00720028






000
SXUS55 KMSO 210404
OSOMSO
MONTANA AWOS SUMMARY
NATIONAL WEATHER SERVICE MISSOULA MT
1003 PM MDT MON OCT 20 2014

Montana AWOS Reports

LAUREL      |K6S8 210355Z AUTO 00000KT 40SM 15/M03 A2983 RMK AO1 T01501032
ROUNDUP     |KRPX 210355Z AUTO 20006KT 40SM 16/M01 A2974 RMK AO1 T01611005
PLAINS      |KS34 210355Z AUTO 00000KT 25SM 08/02 A2974 RMK AO1 T00830022






000
SXUS55 KMSO 210404
OSOMSO
MONTANA AWOS SUMMARY
NATIONAL WEATHER SERVICE MISSOULA MT
1003 PM MDT MON OCT 20 2014

Montana AWOS Reports

LAUREL      |K6S8 210355Z AUTO 00000KT 40SM 15/M03 A2983 RMK AO1 T01501032
ROUNDUP     |KRPX 210355Z AUTO 20006KT 40SM 16/M01 A2974 RMK AO1 T01611005
PLAINS      |KS34 210355Z AUTO 00000KT 25SM 08/02 A2974 RMK AO1 T00830022






000
SXUS55 KMSO 210353
OSOMSO
MONTANA AWOS SUMMARY
NATIONAL WEATHER SERVICE MISSOULA MT
953 PM MDT MON OCT 20 2014

Montana AWOS Reports

LAUREL      |K6S8 210335Z AUTO 00000KT 40SM 14/M03 A2983 RMK AO1 T01441032
ROUNDUP     |KRPX 210335Z AUTO 00000KT 40SM 17/00 A2975 RMK AO1 T01720000






000
SXUS55 KMSO 210353
OSOMSO
MONTANA AWOS SUMMARY
NATIONAL WEATHER SERVICE MISSOULA MT
953 PM MDT MON OCT 20 2014

Montana AWOS Reports

LAUREL      |K6S8 210335Z AUTO 00000KT 40SM 14/M03 A2983 RMK AO1 T01441032
ROUNDUP     |KRPX 210335Z AUTO 00000KT 40SM 17/00 A2975 RMK AO1 T01720000






000
SXUS55 KMSO 210324
OSOMSO
MONTANA AWOS SUMMARY
NATIONAL WEATHER SERVICE MISSOULA MT
923 PM MDT MON OCT 20 2014

Montana AWOS Reports

LAUREL      |K6S8 210315Z AUTO 00000KT 40SM 16/M02 A2983 RMK AO1 T01611021
ROUNDUP     |KRPX 210315Z AUTO 00000KT 40SM 17/00 A2975 RMK AO1 T01720000






000
SXUS55 KMSO 210303
OSOMSO
MONTANA AWOS SUMMARY
NATIONAL WEATHER SERVICE MISSOULA MT
903 PM MDT MON OCT 20 2014

Montana AWOS Reports

ROUNDUP     |KRPX 210255Z AUTO 00000KT 40SM 18/M01 A2975 RMK AO1 T01831005
SCOBEY      |K9S2 210255Z AUTO 00000KT 25SM 12/03 A2978 RMK AO1 T01170028
LAUREL      |K6S8 210255Z AUTO 22004KT 40SM 16/M03 A2984 RMK AO1 T01611027
MALTA       |KM75 210255Z AUTO 00000KT 40SM 10/03 A2971 RMK AO1 T01000033






000
SXUS55 KMSO 210303
OSOMSO
MONTANA AWOS SUMMARY
NATIONAL WEATHER SERVICE MISSOULA MT
903 PM MDT MON OCT 20 2014

Montana AWOS Reports

ROUNDUP     |KRPX 210255Z AUTO 00000KT 40SM 18/M01 A2975 RMK AO1 T01831005
SCOBEY      |K9S2 210255Z AUTO 00000KT 25SM 12/03 A2978 RMK AO1 T01170028
LAUREL      |K6S8 210255Z AUTO 22004KT 40SM 16/M03 A2984 RMK AO1 T01611027
MALTA       |KM75 210255Z AUTO 00000KT 40SM 10/03 A2971 RMK AO1 T01000033






000
SXUS55 KMSO 210243
OSOMSO
MONTANA AWOS SUMMARY
NATIONAL WEATHER SERVICE MISSOULA MT
843 PM MDT MON OCT 20 2014

Montana AWOS Reports

ROUNDUP     |KRPX 210235Z AUTO 14008KT 40SM 19/00 A2975 RMK AO1 T01940000
LAUREL      |K6S8 210235Z AUTO 00000KT 40SM 14/M03 A2984 RMK AO1 T01391032
MALTA       |KM75 210155Z AUTO 00000KT 40SM 14/05 A2972 RMK AO1 T01440050






000
SXUS55 KMSO 210243
OSOMSO
MONTANA AWOS SUMMARY
NATIONAL WEATHER SERVICE MISSOULA MT
843 PM MDT MON OCT 20 2014

Montana AWOS Reports

ROUNDUP     |KRPX 210235Z AUTO 14008KT 40SM 19/00 A2975 RMK AO1 T01940000
LAUREL      |K6S8 210235Z AUTO 00000KT 40SM 14/M03 A2984 RMK AO1 T01391032
MALTA       |KM75 210155Z AUTO 00000KT 40SM 14/05 A2972 RMK AO1 T01440050






000
SXUS55 KMSO 210233
OSOMSO
MONTANA AWOS SUMMARY
NATIONAL WEATHER SERVICE MISSOULA MT
833 PM MDT MON OCT 20 2014

Montana AWOS Reports

SCOBEY      |K9S2 210155Z AUTO 13008KT 40SM 15/03 A2979 RMK AO1 T01500033






000
SXUS55 KMSO 210223
OSOMSO
MONTANA AWOS SUMMARY
NATIONAL WEATHER SERVICE MISSOULA MT
823 PM MDT MON OCT 20 2014

Montana AWOS Reports

LAUREL      |K6S8 210215Z AUTO 00000KT 40SM 15/M03 A2984 RMK AO1 T01501032
ROUNDUP     |KRPX 210215Z AUTO 00000KT 40SM 18/M01 A2976 RMK AO1 T01831010






000
SXUS55 KMSO 210223
OSOMSO
MONTANA AWOS SUMMARY
NATIONAL WEATHER SERVICE MISSOULA MT
823 PM MDT MON OCT 20 2014

Montana AWOS Reports

LAUREL      |K6S8 210215Z AUTO 00000KT 40SM 15/M03 A2984 RMK AO1 T01501032
ROUNDUP     |KRPX 210215Z AUTO 00000KT 40SM 18/M01 A2976 RMK AO1 T01831010






000
SXUS55 KMSO 210214
OSOMSO
MONTANA AWOS SUMMARY
NATIONAL WEATHER SERVICE MISSOULA MT
813 PM MDT MON OCT 20 2014

Montana AWOS Reports

PLAINS      |KS34 210155Z AUTO 00000KT 25SM 15/04 A2974 RMK AO1 T01500044






000
SXUS55 KMSO 210214
OSOMSO
MONTANA AWOS SUMMARY
NATIONAL WEATHER SERVICE MISSOULA MT
813 PM MDT MON OCT 20 2014

Montana AWOS Reports

PLAINS      |KS34 210155Z AUTO 00000KT 25SM 15/04 A2974 RMK AO1 T01500044






000
SXUS55 KMSO 210204
OSOMSO
MONTANA AWOS SUMMARY
NATIONAL WEATHER SERVICE MISSOULA MT
803 PM MDT MON OCT 20 2014

Montana AWOS Reports

ROUNDUP     |KRPX 210155Z AUTO 00000KT 40SM 19/M02 A2975 RMK AO1 T01941016
LAUREL      |K6S8 210155Z AUTO 00000KT 40SM 17/M02 A2984 RMK AO1 T01671016






000
SXUS55 KMSO 210204
OSOMSO
MONTANA AWOS SUMMARY
NATIONAL WEATHER SERVICE MISSOULA MT
803 PM MDT MON OCT 20 2014

Montana AWOS Reports

ROUNDUP     |KRPX 210155Z AUTO 00000KT 40SM 19/M02 A2975 RMK AO1 T01941016
LAUREL      |K6S8 210155Z AUTO 00000KT 40SM 17/M02 A2984 RMK AO1 T01671016






000
SXUS55 KMSO 210143
OSOMSO
MONTANA AWOS SUMMARY
NATIONAL WEATHER SERVICE MISSOULA MT
743 PM MDT MON OCT 20 2014

Montana AWOS Reports

ROUNDUP     |KRPX 210135Z AUTO 15005KT 40SM 20/M01 A2975 RMK AO1 T02001010
LAUREL      |K6S8 210135Z AUTO 00000KT 40SM 18/M02 A2985 RMK AO1 T01781021






000
SXUS55 KMSO 210123
OSOMSO
MONTANA AWOS SUMMARY
NATIONAL WEATHER SERVICE MISSOULA MT
722 PM MDT MON OCT 20 2014

Montana AWOS Reports

ROUNDUP     |KRPX 210115Z AUTO 00000KT 40SM 20/M01 A2976 RMK AO1 T02001005
LAUREL      |K6S8 210115Z AUTO 00000KT 40SM 18/M02 A2985 RMK AO1 T01781016






000
SXUS55 KMSO 210103
OSOMSO
MONTANA AWOS SUMMARY
NATIONAL WEATHER SERVICE MISSOULA MT
703 PM MDT MON OCT 20 2014

Montana AWOS Reports

LAUREL      |K6S8 210055Z AUTO 00000KT 40SM 18/M02 A2985 RMK AO1 T01781016
ROUNDUP     |KRPX 210055Z AUTO 00000KT 40SM 21/M01 A2976 RMK AO1 T02061010
MALTA       |KM75 210055Z AUTO 00000KT 40SM 17/05 A2972 RMK AO1 T01720050






000
SXUS55 KMSO 210053
OSOMSO
MONTANA AWOS SUMMARY
NATIONAL WEATHER SERVICE MISSOULA MT
652 PM MDT MON OCT 20 2014

Montana AWOS Reports

LAUREL      |K6S8 210035Z AUTO 00000KT 40SM 17/M03 A2985 RMK AO1 T01721027






000
SXUS55 KMSO 210043
OSOMSO
MONTANA AWOS SUMMARY
NATIONAL WEATHER SERVICE MISSOULA MT
643 PM MDT MON OCT 20 2014

Montana AWOS Reports

ROUNDUP     |KRPX 210035Z AUTO 00000KT 40SM 21/M01 A2976 RMK AO1 T02111005






000
SXUS55 KMSO 210024
OSOMSO
MONTANA AWOS SUMMARY
NATIONAL WEATHER SERVICE MISSOULA MT
623 PM MDT MON OCT 20 2014

Montana AWOS Reports

ROUNDUP     |KRPX 210015Z AUTO 00000KT 40SM 23/00 A2976 RMK AO1 T02280000
LAUREL      |K6S8 210015Z AUTO 00000KT 40SM 21/M01 A2985 RMK AO1 T02111005






000
SXUS55 KMSO 210004
OSOMSO
MONTANA AWOS SUMMARY
NATIONAL WEATHER SERVICE MISSOULA MT
603 PM MDT MON OCT 20 2014

Montana AWOS Reports

LAUREL      |K6S8 202355Z AUTO 00000KT 40SM 23/M01 A2985 RMK AO1 T02331005
ROUNDUP     |KRPX 202355Z AUTO 00000KT 40SM 24/M01 A2976 RMK AO1 T02391005
SCOBEY      |K9S2 202355Z AUTO 14006KT 40SM 19/04 A2980 RMK AO1 T01940039






000
SXUS55 KMSO 202353
OSOMSO
MONTANA AWOS SUMMARY
NATIONAL WEATHER SERVICE MISSOULA MT
553 PM MDT MON OCT 20 2014

Montana AWOS Reports

LAUREL      |K6S8 202335Z AUTO 00000KT 40SM 25/M01 A2985 RMK AO1 T02501005
ROUNDUP     |KRPX 202335Z AUTO 00000KT 40SM 25/M01 A2976 RMK AO1 T02501005






000
SXUS55 KMSO 202324
OSOMSO
MONTANA AWOS SUMMARY
NATIONAL WEATHER SERVICE MISSOULA MT
523 PM MDT MON OCT 20 2014

Montana AWOS Reports

LAUREL      |K6S8 202315Z AUTO 00000KT 40SM 26/00 A2985 RMK AO1 T02560000
ROUNDUP     |KRPX 202315Z AUTO 00000KT 40SM 26/M01 A2976 RMK AO1 T02561005






000
SXUS55 KMSO 202313
OSOMSO
MONTANA AWOS SUMMARY
NATIONAL WEATHER SERVICE MISSOULA MT
513 PM MDT MON OCT 20 2014

Montana AWOS Reports

LAUREL      |K6S8 202255Z AUTO 00000KT 40SM 26/00 A2986 RMK AO1 T02610000
PLAINS      |KS34 202255Z AUTO 00000KT 40SM 22/04 A2975 RMK AO1 T02220044
MALTA       |KM75 202255Z AUTO 00000KT 40SM 23/06 A2973 RMK AO1 T02330061






000
SXUS55 KMSO 202303
OSOMSO
MONTANA AWOS SUMMARY
NATIONAL WEATHER SERVICE MISSOULA MT
503 PM MDT MON OCT 20 2014

Montana AWOS Reports

ROUNDUP     |KRPX 202255Z AUTO 00000KT 40SM 26/00 A2977 RMK AO1 T02610000
SCOBEY      |K9S2 202255Z AUTO 14007KT 40SM 23/05 A2980 RMK AO1 T02280050






000
SXUS55 KMSO 202253
OSOMSO
MONTANA AWOS SUMMARY
NATIONAL WEATHER SERVICE MISSOULA MT
453 PM MDT MON OCT 20 2014

Montana AWOS Reports

LAUREL      |K6S8 202235Z AUTO 00000KT 40SM 26/00 A2986 RMK AO1 T02610000






000
SXUS55 KMSO 202253
OSOMSO
MONTANA AWOS SUMMARY
NATIONAL WEATHER SERVICE MISSOULA MT
453 PM MDT MON OCT 20 2014

Montana AWOS Reports

LAUREL      |K6S8 202235Z AUTO 00000KT 40SM 26/00 A2986 RMK AO1 T02610000






000
SXUS55 KMSO 202243
OSOMSO
MONTANA AWOS SUMMARY
NATIONAL WEATHER SERVICE MISSOULA MT
443 PM MDT MON OCT 20 2014

Montana AWOS Reports

ROUNDUP     |KRPX 202235Z AUTO 16004KT 40SM 26/00 A2977 RMK AO1 T02610000






000
SXUS55 KMSO 202234
OSOMSO
MONTANA AWOS SUMMARY
NATIONAL WEATHER SERVICE MISSOULA MT
433 PM MDT MON OCT 20 2014

Montana AWOS Reports

LAUREL      |K6S8 202215Z AUTO 00000KT 40SM 26/00 A2986 RMK AO1 T02610000
ROUNDUP     |KRPX 202215Z AUTO 19006KT 40SM 26/M01 A2977 RMK AO1 T02611010






000
SXUS55 KMSO 202203
OSOMSO
MONTANA AWOS SUMMARY
NATIONAL WEATHER SERVICE MISSOULA MT
403 PM MDT MON OCT 20 2014

Montana AWOS Reports

ROUNDUP     |KRPX 202155Z AUTO 22008KT 40SM 26/M01 A2978 RMK AO1 T02611010
LAUREL      |K6S8 202155Z AUTO 00000KT 40SM 26/M01 A2987 RMK AO1 T02611010
SCOBEY      |K9S2 202155Z AUTO 14011G15KT 40SM 23/04 A2981 RMK AO1 T02280044
MALTA       |KM75 202155Z AUTO 00000KT 40SM 24/07 A2974 RMK AO1 T02390072






000
SXUS55 KMSO 202203
OSOMSO
MONTANA AWOS SUMMARY
NATIONAL WEATHER SERVICE MISSOULA MT
403 PM MDT MON OCT 20 2014

Montana AWOS Reports

ROUNDUP     |KRPX 202155Z AUTO 22008KT 40SM 26/M01 A2978 RMK AO1 T02611010
LAUREL      |K6S8 202155Z AUTO 00000KT 40SM 26/M01 A2987 RMK AO1 T02611010
SCOBEY      |K9S2 202155Z AUTO 14011G15KT 40SM 23/04 A2981 RMK AO1 T02280044
MALTA       |KM75 202155Z AUTO 00000KT 40SM 24/07 A2974 RMK AO1 T02390072






000
SXUS55 KMSO 202143
OSOMSO
MONTANA AWOS SUMMARY
NATIONAL WEATHER SERVICE MISSOULA MT
343 PM MDT MON OCT 20 2014

Montana AWOS Reports

ROUNDUP     |KRPX 202135Z AUTO 21004KT 40SM 26/00 A2977 RMK AO1 T02610000
LAUREL      |K6S8 202135Z AUTO 15004KT 25SM 26/00 A2987 RMK AO1 T02610000






000
SXUS55 KMSO 202143
OSOMSO
MONTANA AWOS SUMMARY
NATIONAL WEATHER SERVICE MISSOULA MT
343 PM MDT MON OCT 20 2014

Montana AWOS Reports

ROUNDUP     |KRPX 202135Z AUTO 21004KT 40SM 26/00 A2977 RMK AO1 T02610000
LAUREL      |K6S8 202135Z AUTO 15004KT 25SM 26/00 A2987 RMK AO1 T02610000






000
SXUS55 KMSO 202123
OSOMSO
MONTANA AWOS SUMMARY
NATIONAL WEATHER SERVICE MISSOULA MT
323 PM MDT MON OCT 20 2014

Montana AWOS Reports

ROUNDUP     |KRPX 202115Z AUTO 23008KT 40SM 26/00 A2978 RMK AO1 T02560000
LAUREL      |K6S8 202115Z AUTO 18004KT 25SM 26/00 A2987 RMK AO1 T02610000






000
SXUS55 KMSO 202103
OSOMSO
MONTANA AWOS SUMMARY
NATIONAL WEATHER SERVICE MISSOULA MT
303 PM MDT MON OCT 20 2014

Montana AWOS Reports

LAUREL      |K6S8 202055Z AUTO 00000KT 40SM 26/00 A2987 RMK AO1 T02610000
ROUNDUP     |KRPX 202055Z AUTO 21008KT 40SM 26/01 A2978 RMK AO1 T02560011
MALTA       |KM75 202055Z AUTO 00000KT 40SM 23/08 A2975 RMK AO1 T02330078






000
SXUS55 KMSO 202043
OSOMSO
MONTANA AWOS SUMMARY
NATIONAL WEATHER SERVICE MISSOULA MT
243 PM MDT MON OCT 20 2014

Montana AWOS Reports

ROUNDUP     |KRPX 202035Z AUTO 21008KT 40SM 25/01 A2978 RMK AO1 T02500006
LAUREL      |K6S8 202035Z AUTO 15004KT 40SM 26/M01 A2988 RMK AO1 T02611010






000
SXUS55 KMSO 202024
OSOMSO
MONTANA AWOS SUMMARY
NATIONAL WEATHER SERVICE MISSOULA MT
223 PM MDT MON OCT 20 2014

Montana AWOS Reports

MALTA       |KM75 201955Z AUTO 00000KT 40SM 21/09 A2976 RMK AO1 T02110094
ROUNDUP     |KRPX 202015Z AUTO 20011KT 40SM 24/00 A2979 RMK AO1 T02440000
LAUREL      |K6S8 202015Z AUTO 18006KT 40SM 26/M02 A2988 RMK AO1 T02561016






000
SXUS55 KMSO 202013
OSOMSO
MONTANA AWOS SUMMARY
NATIONAL WEATHER SERVICE MISSOULA MT
213 PM MDT MON OCT 20 2014

Montana AWOS Reports

LAUREL      |K6S8 201955Z AUTO 20008KT 170V230 25SM 26/M02 A2989 RMK AO1 T02561021
ROUNDUP     |KRPX 201955Z AUTO 23010G15KT 40SM 24/00 A2979 RMK AO1 T02440000
SCOBEY      |K9S2 201955Z AUTO 16005KT 40SM 22/04 A2983 RMK AO1 T02170044






000
SXUS55 KMSO 202003
OSOMSO
MONTANA AWOS SUMMARY
NATIONAL WEATHER SERVICE MISSOULA MT
202 PM MDT MON OCT 20 2014

Montana AWOS Reports

PLAINS      |KS34 201955Z AUTO 00000KT 15SM 18/04 A2980 RMK AO1 T01780044






000
SXUS55 KMSO 201943
OSOMSO
MONTANA AWOS SUMMARY
NATIONAL WEATHER SERVICE MISSOULA MT
143 PM MDT MON OCT 20 2014

Montana AWOS Reports

ROUNDUP     |KRPX 201935Z AUTO 20013KT 40SM 24/M01 A2980 RMK AO1 T02391010
LAUREL      |K6S8 201935Z AUTO 19008KT 40SM 26/M02 A2989 RMK AO1 T02561016






000
SXUS55 KMSO 201924
OSOMSO
MONTANA AWOS SUMMARY
NATIONAL WEATHER SERVICE MISSOULA MT
123 PM MDT MON OCT 20 2014

Montana AWOS Reports

ROUNDUP     |KRPX 201915Z AUTO 20012G18KT 40SM 23/00 A2980 RMK AO1 T02330000
LAUREL      |K6S8 201915Z AUTO 19008KT 1 1/4SM 25/M01 A2990 RMK AO1 T02501005






000
SXUS55 KMSO 201903
OSOMSO
MONTANA AWOS SUMMARY
NATIONAL WEATHER SERVICE MISSOULA MT
103 PM MDT MON OCT 20 2014

Montana AWOS Reports

LAUREL      |K6S8 201855Z AUTO 19007KT 1 3/4SM 24/00 A2991 RMK AO1 T02440000
ROUNDUP     |KRPX 201855Z AUTO 20012G16KT 40SM 22/01 A2981 RMK AO1 T02220006
MALTA       |KM75 201855Z AUTO 00000KT 40SM 19/08 A2979 RMK AO1 T01940083
PLAINS      |KS34 201855Z AUTO 00000KT 25SM 16/05 A2983 RMK AO1 T01560050






000
SXUS55 KMSO 201853
OSOMSO
MONTANA AWOS SUMMARY
NATIONAL WEATHER SERVICE MISSOULA MT
1253 PM MDT MON OCT 20 2014

Montana AWOS Reports

LAUREL      |K6S8 201835Z AUTO 18006KT 25SM 23/00 A2992 RMK AO1 T02330000
ROUNDUP     |KRPX 201835Z AUTO 20008KT 40SM 21/M01 A2982 RMK AO1 T02111005






000
SXUS55 KMSO 201833
OSOMSO
MONTANA AWOS SUMMARY
NATIONAL WEATHER SERVICE MISSOULA MT
1232 PM MDT MON OCT 20 2014

Montana AWOS Reports

LAUREL      |K6S8 201815Z AUTO 19009G13KT 5SM 22/00 A2992 RMK AO1 T02220000
ROUNDUP     |KRPX 201815Z AUTO 18007KT 40SM 20/00 A2983 RMK AO1 T02000000






000
SXUS55 KMSO 201813
OSOMSO
MONTANA AWOS SUMMARY
NATIONAL WEATHER SERVICE MISSOULA MT
1213 PM MDT MON OCT 20 2014

Montana AWOS Reports

MALTA       |KM75 201755Z AUTO 00000KT 40SM 16/08 A2981 RMK AO1 T01610078






000
SXUS55 KMSO 201803
OSOMSO
MONTANA AWOS SUMMARY
NATIONAL WEATHER SERVICE MISSOULA MT
1203 PM MDT MON OCT 20 2014

Montana AWOS Reports

LAUREL      |K6S8 201755Z AUTO 20008KT 25SM 21/M01 A2993 RMK AO1 T02111010
ROUNDUP     |KRPX 201755Z AUTO 19009G14KT 40SM 18/01 A2983 RMK AO1 T01780011
SCOBEY      |K9S2 201755Z AUTO 16005KT 40SM 17/04 A2986 RMK AO1 T01720039






000
SXUS55 KMSO 201753
OSOMSO
MONTANA AWOS SUMMARY
NATIONAL WEATHER SERVICE MISSOULA MT
1152 AM MDT MON OCT 20 2014

Montana AWOS Reports

MALTA       |KM75 201655Z AUTO 00000KT 40SM 14/06 A2982 RMK AO1 T01390061






000
SXUS55 KMSO 201724
OSOMSO
MONTANA AWOS SUMMARY
NATIONAL WEATHER SERVICE MISSOULA MT
1123 AM MDT MON OCT 20 2014

Montana AWOS Reports

LAUREL      |K6S8 201715Z AUTO 19006KT 7SM 18/00 A2994 RMK AO1 T01780000
ROUNDUP     |KRPX 201715Z AUTO 18005KT 40SM 14/01 A2984 RMK AO1 T01440011






000
SXUS55 KMSO 201703
OSOMSO
MONTANA AWOS SUMMARY
NATIONAL WEATHER SERVICE MISSOULA MT
1103 AM MDT MON OCT 20 2014

Montana AWOS Reports

ROUNDUP     |KRPX 201655Z AUTO 00000KT 40SM 13/01 A2985 RMK AO1 T01280011
PLAINS      |KS34 201655Z AUTO 00000KT 7SM 06/04 A2987 RMK AO1 T00610044
LAUREL      |K6S8 201655Z AUTO 20006KT 7SM 16/M01 A2994 RMK AO1 T01561005
SCOBEY      |K9S2 201655Z AUTO 16005KT 40SM 15/03 A2987 RMK AO1 T01500033






000
SXUS55 KMSO 201643
OSOMSO
MONTANA AWOS SUMMARY
NATIONAL WEATHER SERVICE MISSOULA MT
1043 AM MDT MON OCT 20 2014

Montana AWOS Reports

ROUNDUP     |KRPX 201635Z AUTO 19010G14KT 40SM 12/00 A2985 RMK AO1 T01170000
LAUREL      |K6S8 201635Z AUTO 21007KT 4SM 14/M02 A2994 RMK AO1 T01391016






000
SXUS55 KMSO 201623
OSOMSO
MONTANA AWOS SUMMARY
NATIONAL WEATHER SERVICE MISSOULA MT
1023 AM MDT MON OCT 20 2014

Montana AWOS Reports

ROUNDUP     |KRPX 201615Z AUTO 00000KT 40SM 10/00 A2986 RMK AO1 T01000000
LAUREL      |K6S8 201615Z AUTO 20008KT 25SM 13/M01 A2994 RMK AO1 T01281010
MALTA       |KM75 201555Z AUTO 00000KT 40SM 18/13 A2983 RMK AO1 T01830133






000
SXUS55 KMSO 201613
OSOMSO
MONTANA AWOS SUMMARY
NATIONAL WEATHER SERVICE MISSOULA MT
1013 AM MDT MON OCT 20 2014

Montana AWOS Reports

PLAINS      |KS34 201555Z AUTO 00000KT 1/4SM 03/01 A2988 RMK AO1 T00280011






000
SXUS55 KMSO 201604
OSOMSO
MONTANA AWOS SUMMARY
NATIONAL WEATHER SERVICE MISSOULA MT
1003 AM MDT MON OCT 20 2014

Montana AWOS Reports

LAUREL      |K6S8 201555Z AUTO 20008KT 5SM 11/M01 A2994 RMK AO1 T01111005
ROUNDUP     |KRPX 201555Z AUTO 20004KT 40SM 08/M01 A2986 RMK AO1 T00781005






000
SXUS55 KMSO 201543
OSOMSO
MONTANA AWOS SUMMARY
NATIONAL WEATHER SERVICE MISSOULA MT
943 AM MDT MON OCT 20 2014

Montana AWOS Reports

LAUREL      |K6S8 201535Z AUTO 20010G15KT 2 1/2SM 10/M01 A2994 RMK AO1 T01001010
ROUNDUP     |KRPX 201535Z AUTO 20009G14KT 40SM 07/M01 A2986 RMK AO1 T00671010






000
SXUS55 KMSO 201533
OSOMSO
MONTANA AWOS SUMMARY
NATIONAL WEATHER SERVICE MISSOULA MT
932 AM MDT MON OCT 20 2014

Montana AWOS Reports

PLAINS      |KS34 201455Z AUTO 00000KT 1/4SM 00/M02 A2988 RMK AO1 T00001016






000
SXUS55 KMSO 201524
OSOMSO
MONTANA AWOS SUMMARY
NATIONAL WEATHER SERVICE MISSOULA MT
923 AM MDT MON OCT 20 2014

Montana AWOS Reports

LAUREL      |K6S8 201515Z AUTO 21009G14KT 3 1/2SM 08/M01 A2994 RMK AO1 T00831005
ROUNDUP     |KRPX 201515Z AUTO 19004KT 40SM 06/M01 A2986 RMK AO1 T00561010






000
SXUS55 KMSO 201513
OSOMSO
MONTANA AWOS SUMMARY
NATIONAL WEATHER SERVICE MISSOULA MT
913 AM MDT MON OCT 20 2014

Montana AWOS Reports

SCOBEY      |K9S2 201455Z AUTO 00000KT 40SM 06/01 A2988 RMK AO1 T00560011






000
SXUS55 KMSO 201443
OSOMSO
MONTANA AWOS SUMMARY
NATIONAL WEATHER SERVICE MISSOULA MT
843 AM MDT MON OCT 20 2014

Montana AWOS Reports

ROUNDUP     |KRPX 201435Z AUTO 19007KT 40SM 04/M02 A2986 RMK AO1 T00441016
LAUREL      |K6S8 201435Z AUTO 00000KT 25SM 04/M01 A2995 RMK AO1 T00441010






000
SXUS55 KMSO 201424
OSOMSO
MONTANA AWOS SUMMARY
NATIONAL WEATHER SERVICE MISSOULA MT
823 AM MDT MON OCT 20 2014

Montana AWOS Reports

ROUNDUP     |KRPX 201415Z AUTO 20004KT 40SM 04/M02 A2986 RMK AO1 T00391021
LAUREL      |K6S8 201415Z AUTO 00000KT 25SM 03/M01 A2994 RMK AO1 T00331010






000
SXUS55 KMSO 201413
OSOMSO
MONTANA AWOS SUMMARY
NATIONAL WEATHER SERVICE MISSOULA MT
813 AM MDT MON OCT 20 2014

Montana AWOS Reports

PLAINS      |KS34 201355Z AUTO 00000KT 1/4SM 00/M02 A2988 RMK AO1 T00001021
MALTA       |KM75 201355Z AUTO 00000KT 40SM 02/00 A2983 RMK AO1 T00220000






000
SXUS55 KMSO 201404
OSOMSO
MONTANA AWOS SUMMARY
NATIONAL WEATHER SERVICE MISSOULA MT
803 AM MDT MON OCT 20 2014

Montana AWOS Reports

LAUREL      |K6S8 201355Z AUTO 00000KT 15SM 03/M02 A2994 RMK AO1 T00281016
ROUNDUP     |KRPX 201355Z AUTO 21013G17KT 40SM 03/M02 A2985 RMK AO1 T00331021
SCOBEY      |K9S2 201355Z AUTO 00000KT 40SM 03/M01 A2989 RMK AO1 T00281010






000
SXUS55 KMSO 201343
OSOMSO
MONTANA AWOS SUMMARY
NATIONAL WEATHER SERVICE MISSOULA MT
743 AM MDT MON OCT 20 2014

Montana AWOS Reports

LAUREL      |K6S8 201335Z AUTO 00000KT 15SM 02/M02 A2994 RMK AO1 T00221021
ROUNDUP     |KRPX 201335Z AUTO 19006KT 40SM 03/M02 A2985 RMK AO1 T00331021






000
SXUS55 KMSO 201323
OSOMSO
MONTANA AWOS SUMMARY
NATIONAL WEATHER SERVICE MISSOULA MT
723 AM MDT MON OCT 20 2014

Montana AWOS Reports

LAUREL      |K6S8 201315Z AUTO 00000KT 15SM 02/M02 A2994 RMK AO1 T00221021
ROUNDUP     |KRPX 201315Z AUTO 20010G15KT 40SM 04/M02 A2985 RMK AO1 T00391016






000
SXUS55 KMSO 201313
OSOMSO
MONTANA AWOS SUMMARY
NATIONAL WEATHER SERVICE MISSOULA MT
712 AM MDT MON OCT 20 2014

Montana AWOS Reports

MALTA       |KM75 201255Z AUTO 00000KT 40SM 02/M01 A2983 RMK AO1 T00221005
SCOBEY      |K9S2 201255Z AUTO 00000KT 40SM 04/00 A2989 RMK AO1 T00390000






000
SXUS55 KMSO 201303
OSOMSO
MONTANA AWOS SUMMARY
NATIONAL WEATHER SERVICE MISSOULA MT
703 AM MDT MON OCT 20 2014

Montana AWOS Reports

ROUNDUP     |KRPX 201255Z AUTO 20013G18KT 40SM 03/M02 A2985 RMK AO1 T00331021
LAUREL      |K6S8 201255Z AUTO 25004KT 15SM 03/M02 A2994 RMK AO1 T00281021






000
SXUS55 KMSO 201253
OSOMSO
MONTANA AWOS SUMMARY
NATIONAL WEATHER SERVICE MISSOULA MT
652 AM MDT MON OCT 20 2014

Montana AWOS Reports

LAUREL      |K6S8 201235Z AUTO 00000KT 25SM 04/M02 A2994 RMK AO1 T00391016
ROUNDUP     |KRPX 201235Z AUTO 20012G18KT 40SM 03/M02 A2985 RMK AO1 T00331021






000
SXUS55 KMSO 201233
OSOMSO
MONTANA AWOS SUMMARY
NATIONAL WEATHER SERVICE MISSOULA MT
633 AM MDT MON OCT 20 2014

Montana AWOS Reports

LAUREL      |K6S8 201215Z AUTO 00000KT 10SM 04/M02 A2994 RMK AO1 T00391016
ROUNDUP     |KRPX 201215Z AUTO 20012KT 40SM 04/M02 A2986 RMK AO1 T00391016






000
SXUS55 KMSO 201203
OSOMSO
MONTANA AWOS SUMMARY
NATIONAL WEATHER SERVICE MISSOULA MT
603 AM MDT MON OCT 20 2014

Montana AWOS Reports

ROUNDUP     |KRPX 201155Z AUTO 20013KT 40SM 04/M02 A2985 RMK AO1 T00391016
SCOBEY      |K9S2 201155Z AUTO 00000KT 40SM 07/01 A2989 RMK AO1 T00670006
PLAINS      |KS34 201155Z AUTO 00000KT 1/4SM 01/M01 A2988 RMK AO1 T00111010
LAUREL      |K6S8 201155Z AUTO 00000KT 10SM 04/M02 A2994 RMK AO1 T00391021
MALTA       |KM75 201155Z AUTO 00000KT 40SM 03/00 A2983 RMK AO1 T00280000






000
SXUS55 KMSO 201153
OSOMSO
MONTANA AWOS SUMMARY
NATIONAL WEATHER SERVICE MISSOULA MT
553 AM MDT MON OCT 20 2014

Montana AWOS Reports

LAUREL      |K6S8 201135Z AUTO 00000KT 10SM 05/M02 A2994 RMK AO1 T00501016






000
SXUS55 KMSO 201143
OSOMSO
MONTANA AWOS SUMMARY
NATIONAL WEATHER SERVICE MISSOULA MT
542 AM MDT MON OCT 20 2014

Montana AWOS Reports

ROUNDUP     |KRPX 201135Z AUTO 20013G17KT 40SM 04/M02 A2985 RMK AO1 T00391016






000
SXUS55 KMSO 201123
OSOMSO
MONTANA AWOS SUMMARY
NATIONAL WEATHER SERVICE MISSOULA MT
523 AM MDT MON OCT 20 2014

Montana AWOS Reports

ROUNDUP     |KRPX 201115Z AUTO 20017KT 40SM 04/M02 A2985 RMK AO1 T00391016
LAUREL      |K6S8 201115Z AUTO 00000KT 10SM 04/M02 A2994 RMK AO1 T00441016






000
SXUS55 KMSO 201103
OSOMSO
MONTANA AWOS SUMMARY
NATIONAL WEATHER SERVICE MISSOULA MT
503 AM MDT MON OCT 20 2014

Montana AWOS Reports

LAUREL      |K6S8 201055Z AUTO 00000KT 10SM 04/M02 A2994 RMK AO1 T00441016
ROUNDUP     |KRPX 201055Z AUTO 19014KT 40SM 03/M02 A2985 RMK AO1 T00331016
SCOBEY      |K9S2 201055Z AUTO 00000KT 40SM 10/01 A2990 RMK AO1 T01000011
MALTA       |KM75 201055Z AUTO 00000KT 40SM 04/01 A2984 RMK AO1 T00440006
PLAINS      |KS34 201055Z AUTO 00000KT 1/4SM 01/M02 A2988 RMK AO1 T00061016






000
SXUS55 KMSO 201053
OSOMSO
MONTANA AWOS SUMMARY
NATIONAL WEATHER SERVICE MISSOULA MT
453 AM MDT MON OCT 20 2014

Montana AWOS Reports

LAUREL      |K6S8 201035Z AUTO 00000KT 10SM 04/M02 A2994 RMK AO1 T00441016
ROUNDUP     |KRPX 201035Z AUTO 20012G18KT 40SM 04/M01 A2986 RMK AO1 T00391010






000
SXUS55 KMSO 201053
OSOMSO
MONTANA AWOS SUMMARY
NATIONAL WEATHER SERVICE MISSOULA MT
453 AM MDT MON OCT 20 2014

Montana AWOS Reports

LAUREL      |K6S8 201035Z AUTO 00000KT 10SM 04/M02 A2994 RMK AO1 T00441016
ROUNDUP     |KRPX 201035Z AUTO 20012G18KT 40SM 04/M01 A2986 RMK AO1 T00391010






000
SXUS55 KMSO 201033
OSOMSO
MONTANA AWOS SUMMARY
NATIONAL WEATHER SERVICE MISSOULA MT
433 AM MDT MON OCT 20 2014

Montana AWOS Reports

LAUREL      |K6S8 201015Z AUTO 00000KT 10SM 04/M02 A2994 RMK AO1 T00441016
ROUNDUP     |KRPX 201015Z AUTO 20012G17KT 40SM 04/M02 A2986 RMK AO1 T00391016






000
SXUS55 KMSO 201003
OSOMSO
MONTANA AWOS SUMMARY
NATIONAL WEATHER SERVICE MISSOULA MT
403 AM MDT MON OCT 20 2014

Montana AWOS Reports

ROUNDUP     |KRPX 200955Z AUTO 20012G16KT 40SM 04/M02 A2986 RMK AO1 T00441016
SCOBEY      |K9S2 200955Z AUTO 14007KT 40SM 08/02 A2991 RMK AO1 T00780017
MALTA       |KM75 200955Z AUTO 00000KT 40SM 07/02 A2984 RMK AO1 T00720022
PLAINS      |KS34 200955Z AUTO 00000KT 1SM 01/M02 A2988 RMK AO1 T00061016
LAUREL      |K6S8 200955Z AUTO 00000KT 10SM 04/M02 A2994 RMK AO1 T00441016






000
SXUS55 KMSO 201003
OSOMSO
MONTANA AWOS SUMMARY
NATIONAL WEATHER SERVICE MISSOULA MT
403 AM MDT MON OCT 20 2014

Montana AWOS Reports

ROUNDUP     |KRPX 200955Z AUTO 20012G16KT 40SM 04/M02 A2986 RMK AO1 T00441016
SCOBEY      |K9S2 200955Z AUTO 14007KT 40SM 08/02 A2991 RMK AO1 T00780017
MALTA       |KM75 200955Z AUTO 00000KT 40SM 07/02 A2984 RMK AO1 T00720022
PLAINS      |KS34 200955Z AUTO 00000KT 1SM 01/M02 A2988 RMK AO1 T00061016
LAUREL      |K6S8 200955Z AUTO 00000KT 10SM 04/M02 A2994 RMK AO1 T00441016






000
SXUS55 KMSO 200944
OSOMSO
MONTANA AWOS SUMMARY
NATIONAL WEATHER SERVICE MISSOULA MT
343 AM MDT MON OCT 20 2014

Montana AWOS Reports

ROUNDUP     |KRPX 200935Z AUTO 21013G17KT 40SM 06/M01 A2987 RMK AO1 T00561010
LAUREL      |K6S8 200935Z AUTO 00000KT 15SM 04/M02 A2994 RMK AO1 T00441016






000
SXUS55 KMSO 200944
OSOMSO
MONTANA AWOS SUMMARY
NATIONAL WEATHER SERVICE MISSOULA MT
343 AM MDT MON OCT 20 2014

Montana AWOS Reports

ROUNDUP     |KRPX 200935Z AUTO 21013G17KT 40SM 06/M01 A2987 RMK AO1 T00561010
LAUREL      |K6S8 200935Z AUTO 00000KT 15SM 04/M02 A2994 RMK AO1 T00441016






000
SXUS55 KMSO 200923
OSOMSO
MONTANA AWOS SUMMARY
NATIONAL WEATHER SERVICE MISSOULA MT
323 AM MDT MON OCT 20 2014

Montana AWOS Reports

ROUNDUP     |KRPX 200915Z AUTO 21008KT 40SM 06/M01 A2987 RMK AO1 T00561010
LAUREL      |K6S8 200915Z AUTO 00000KT 10SM 04/M02 A2995 RMK AO1 T00391021






000
SXUS55 KMSO 200903
OSOMSO
MONTANA AWOS SUMMARY
NATIONAL WEATHER SERVICE MISSOULA MT
303 AM MDT MON OCT 20 2014

Montana AWOS Reports

ROUNDUP     |KRPX 200855Z AUTO 21010KT 40SM 06/M01 A2987 RMK AO1 T00611010
MALTA       |KM75 200855Z AUTO 00000KT 40SM 11/04 A2985 RMK AO1 T01060039
PLAINS      |KS34 200855Z AUTO 00000KT 7SM 02/M01 A2989 RMK AO1 T00171005
LAUREL      |K6S8 200855Z AUTO 00000KT 10SM 04/M02 A2995 RMK AO1 T00441016
SCOBEY      |K9S2 200855Z AUTO 00000KT 40SM 07/01 A2992 RMK AO1 T00670011






    US Dept of Commerce
    National Oceanic and Atmospheric Administration
    National Weather Service
    1325 East West Highway
    Silver Spring, MD 20910
    Page Author: NWS Internet Services Team
Disclaimer
Information Quality
Credits
Glossary
Privacy Policy
Freedom of Information Act (FOIA)
About Us
Career Opportunities